<?xml version="1.0" encoding="UTF-8" standalone="no" ?>
<gpx xmlns="http://www.topografix.com/GPX/1/1" xmlns:xsi="http://www.w3.org/2001/XMLSchema-instance" xsi:schemaLocation="http://www.topografix.com/GPX/1/1 http://www.topografix.com/GPX/1/1/gpx.xsd" version="1.1" creator="VisuGPX - https://www.visugpx.com">
  <metadata>
    <name>Autour de &quot;La Route Napoléon à Cheval ©&quot; - Hautes Alpes - Du val de Méouge à la Durance</name>
    <desc><![CDATA[Crêtes et panoramas grandioses vous invitent à de grandes galopades, avant de goûter aux rafraîchissantes Gorges de la Méouge et à la Vallée de la Durance.

Pour avoir les dernières modifications : http://www.buech-rando.com/
Pour plus d'informations, contactez l'Espace Rando des Pays du Buëch : 04 92 67 19 26]]></desc>
  </metadata>
  <trk>
    <name><![CDATA[6913100-Du val de Méouge à la Durance]]></name>
    <trkseg>
      <trkpt lat="44.29063" lon="5.87713">
        <ele>675</ele>
        <time>2018-05-16T12:43:47Z</time>
      </trkpt>
      <trkpt lat="44.29024" lon="5.87714">
        <ele>676</ele>
        <time>2018-05-16T12:44:47Z</time>
      </trkpt>
      <trkpt lat="44.29121" lon="5.87717">
        <ele>673</ele>
        <time>2018-05-16T12:45:47Z</time>
      </trkpt>
      <trkpt lat="44.29186" lon="5.87734">
        <ele>669</ele>
        <time>2018-05-16T12:46:47Z</time>
      </trkpt>
      <trkpt lat="44.29227" lon="5.87771">
        <ele>667</ele>
        <time>2018-05-16T12:47:47Z</time>
      </trkpt>
      <trkpt lat="44.2929" lon="5.8785">
        <ele>665</ele>
        <time>2018-05-16T12:48:47Z</time>
      </trkpt>
      <trkpt lat="44.29318" lon="5.87889">
        <ele>665</ele>
        <time>2018-05-16T12:49:47Z</time>
      </trkpt>
      <trkpt lat="44.29346" lon="5.87922">
        <ele>664</ele>
        <time>2018-05-16T12:50:47Z</time>
      </trkpt>
      <trkpt lat="44.29422" lon="5.87943">
        <ele>656</ele>
        <time>2018-05-16T12:51:47Z</time>
      </trkpt>
      <trkpt lat="44.29462" lon="5.87952">
        <ele>653</ele>
        <time>2018-05-16T12:52:47Z</time>
      </trkpt>
      <trkpt lat="44.29493" lon="5.87963">
        <ele>651</ele>
        <time>2018-05-16T12:53:47Z</time>
      </trkpt>
      <trkpt lat="44.2954" lon="5.87972">
        <ele>645</ele>
        <time>2018-05-16T12:54:47Z</time>
      </trkpt>
      <trkpt lat="44.29558" lon="5.87989">
        <ele>643</ele>
        <time>2018-05-16T12:55:47Z</time>
      </trkpt>
      <trkpt lat="44.29596" lon="5.87994">
        <ele>638</ele>
        <time>2018-05-16T12:56:47Z</time>
      </trkpt>
      <trkpt lat="44.29624" lon="5.87943">
        <ele>633</ele>
        <time>2018-05-16T12:57:47Z</time>
      </trkpt>
      <trkpt lat="44.29655" lon="5.87892">
        <ele>630</ele>
        <time>2018-05-16T12:58:47Z</time>
      </trkpt>
      <trkpt lat="44.29693" lon="5.87991">
        <ele>631</ele>
        <time>2018-05-16T12:59:47Z</time>
      </trkpt>
      <trkpt lat="44.29726" lon="5.88065">
        <ele>629</ele>
        <time>2018-05-16T13:00:47Z</time>
      </trkpt>
      <trkpt lat="44.29779" lon="5.88188">
        <ele>626</ele>
        <time>2018-05-16T13:01:47Z</time>
      </trkpt>
      <trkpt lat="44.29813" lon="5.88246">
        <ele>626</ele>
        <time>2018-05-16T13:02:47Z</time>
      </trkpt>
      <trkpt lat="44.29865" lon="5.883">
        <ele>626</ele>
        <time>2018-05-16T13:03:47Z</time>
      </trkpt>
      <trkpt lat="44.29891" lon="5.88342">
        <ele>627</ele>
        <time>2018-05-16T13:04:47Z</time>
      </trkpt>
      <trkpt lat="44.29975" lon="5.88385">
        <ele>624</ele>
        <time>2018-05-16T13:05:47Z</time>
      </trkpt>
      <trkpt lat="44.30041" lon="5.88408">
        <ele>622</ele>
        <time>2018-05-16T13:06:47Z</time>
      </trkpt>
      <trkpt lat="44.30138" lon="5.88426">
        <ele>617</ele>
        <time>2018-05-16T13:07:47Z</time>
      </trkpt>
      <trkpt lat="44.30223" lon="5.88435">
        <ele>612</ele>
        <time>2018-05-16T13:08:47Z</time>
      </trkpt>
      <trkpt lat="44.30267" lon="5.88447">
        <ele>610</ele>
        <time>2018-05-16T13:09:47Z</time>
      </trkpt>
      <trkpt lat="44.30272" lon="5.88444">
        <ele>609</ele>
        <time>2018-05-16T13:10:47Z</time>
      </trkpt>
      <trkpt lat="44.30324" lon="5.8851">
        <ele>608</ele>
        <time>2018-05-16T13:11:47Z</time>
      </trkpt>
      <trkpt lat="44.30372" lon="5.88551">
        <ele>605</ele>
        <time>2018-05-16T13:12:47Z</time>
      </trkpt>
      <trkpt lat="44.3041" lon="5.88566">
        <ele>602</ele>
        <time>2018-05-16T13:13:47Z</time>
      </trkpt>
      <trkpt lat="44.3044" lon="5.88552">
        <ele>602</ele>
        <time>2018-05-16T13:14:47Z</time>
      </trkpt>
      <trkpt lat="44.30421" lon="5.88501">
        <ele>600</ele>
        <time>2018-05-16T13:15:47Z</time>
      </trkpt>
      <trkpt lat="44.30391" lon="5.88389">
        <ele>603</ele>
        <time>2018-05-16T13:16:47Z</time>
      </trkpt>
      <trkpt lat="44.30375" lon="5.88266">
        <ele>608</ele>
        <time>2018-05-16T13:17:47Z</time>
      </trkpt>
      <trkpt lat="44.30382" lon="5.88169">
        <ele>613</ele>
        <time>2018-05-16T13:18:47Z</time>
      </trkpt>
      <trkpt lat="44.30397" lon="5.8812">
        <ele>616</ele>
        <time>2018-05-16T13:19:47Z</time>
      </trkpt>
      <trkpt lat="44.304" lon="5.88032">
        <ele>621</ele>
        <time>2018-05-16T13:20:47Z</time>
      </trkpt>
      <trkpt lat="44.30414" lon="5.88018">
        <ele>619</ele>
        <time>2018-05-16T13:21:47Z</time>
      </trkpt>
      <trkpt lat="44.30454" lon="5.8803">
        <ele>617</ele>
        <time>2018-05-16T13:22:47Z</time>
      </trkpt>
      <trkpt lat="44.30474" lon="5.88043">
        <ele>616</ele>
        <time>2018-05-16T13:23:47Z</time>
      </trkpt>
      <trkpt lat="44.30505" lon="5.88048">
        <ele>616</ele>
        <time>2018-05-16T13:24:47Z</time>
      </trkpt>
      <trkpt lat="44.30542" lon="5.88041">
        <ele>619</ele>
        <time>2018-05-16T13:25:47Z</time>
      </trkpt>
      <trkpt lat="44.30573" lon="5.88043">
        <ele>622</ele>
        <time>2018-05-16T13:26:47Z</time>
      </trkpt>
      <trkpt lat="44.30599" lon="5.88064">
        <ele>624</ele>
        <time>2018-05-16T13:27:47Z</time>
      </trkpt>
      <trkpt lat="44.30645" lon="5.88111">
        <ele>627</ele>
        <time>2018-05-16T13:28:47Z</time>
      </trkpt>
      <trkpt lat="44.30658" lon="5.8814">
        <ele>630</ele>
        <time>2018-05-16T13:29:47Z</time>
      </trkpt>
      <trkpt lat="44.30682" lon="5.88163">
        <ele>632</ele>
        <time>2018-05-16T13:30:47Z</time>
      </trkpt>
      <trkpt lat="44.3071" lon="5.88196">
        <ele>631</ele>
        <time>2018-05-16T13:31:47Z</time>
      </trkpt>
      <trkpt lat="44.30723" lon="5.88213">
        <ele>630</ele>
        <time>2018-05-16T13:32:47Z</time>
      </trkpt>
      <trkpt lat="44.30769" lon="5.88175">
        <ele>631</ele>
        <time>2018-05-16T13:33:47Z</time>
      </trkpt>
      <trkpt lat="44.30839" lon="5.88104">
        <ele>631</ele>
        <time>2018-05-16T13:34:47Z</time>
      </trkpt>
      <trkpt lat="44.30879" lon="5.88047">
        <ele>631</ele>
        <time>2018-05-16T13:35:47Z</time>
      </trkpt>
      <trkpt lat="44.30903" lon="5.88008">
        <ele>633</ele>
        <time>2018-05-16T13:36:47Z</time>
      </trkpt>
      <trkpt lat="44.30904" lon="5.87967">
        <ele>635</ele>
        <time>2018-05-16T13:37:47Z</time>
      </trkpt>
      <trkpt lat="44.30916" lon="5.87949">
        <ele>635</ele>
        <time>2018-05-16T13:38:47Z</time>
      </trkpt>
      <trkpt lat="44.30993" lon="5.87869">
        <ele>634</ele>
        <time>2018-05-16T13:39:47Z</time>
      </trkpt>
      <trkpt lat="44.31081" lon="5.87793">
        <ele>635</ele>
        <time>2018-05-16T13:40:47Z</time>
      </trkpt>
      <trkpt lat="44.31138" lon="5.87753">
        <ele>634</ele>
        <time>2018-05-16T13:41:47Z</time>
      </trkpt>
      <trkpt lat="44.31183" lon="5.87702">
        <ele>635</ele>
        <time>2018-05-16T13:42:47Z</time>
      </trkpt>
      <trkpt lat="44.31233" lon="5.87668">
        <ele>635</ele>
        <time>2018-05-16T13:43:47Z</time>
      </trkpt>
      <trkpt lat="44.3127" lon="5.87633">
        <ele>638</ele>
        <time>2018-05-16T13:44:47Z</time>
      </trkpt>
      <trkpt lat="44.31285" lon="5.87612">
        <ele>640</ele>
        <time>2018-05-16T13:45:47Z</time>
      </trkpt>
      <trkpt lat="44.31298" lon="5.87612">
        <ele>639</ele>
        <time>2018-05-16T13:46:47Z</time>
      </trkpt>
      <trkpt lat="44.31337" lon="5.87584">
        <ele>642</ele>
        <time>2018-05-16T13:47:47Z</time>
      </trkpt>
      <trkpt lat="44.31439" lon="5.87571">
        <ele>659</ele>
        <time>2018-05-16T13:48:47Z</time>
      </trkpt>
      <trkpt lat="44.31484" lon="5.87574">
        <ele>666</ele>
        <time>2018-05-16T13:49:47Z</time>
      </trkpt>
      <trkpt lat="44.31544" lon="5.87587">
        <ele>667</ele>
        <time>2018-05-16T13:50:47Z</time>
      </trkpt>
      <trkpt lat="44.31569" lon="5.87514">
        <ele>682</ele>
        <time>2018-05-16T13:51:47Z</time>
      </trkpt>
      <trkpt lat="44.316" lon="5.87465">
        <ele>691</ele>
        <time>2018-05-16T13:52:47Z</time>
      </trkpt>
      <trkpt lat="44.31647" lon="5.87415">
        <ele>704</ele>
        <time>2018-05-16T13:53:47Z</time>
      </trkpt>
      <trkpt lat="44.31646" lon="5.87349">
        <ele>701</ele>
        <time>2018-05-16T13:54:47Z</time>
      </trkpt>
      <trkpt lat="44.31684" lon="5.8737">
        <ele>711</ele>
        <time>2018-05-16T13:55:47Z</time>
      </trkpt>
      <trkpt lat="44.31696" lon="5.87409">
        <ele>715</ele>
        <time>2018-05-16T13:56:47Z</time>
      </trkpt>
      <trkpt lat="44.31683" lon="5.87464">
        <ele>712</ele>
        <time>2018-05-16T13:57:47Z</time>
      </trkpt>
      <trkpt lat="44.31682" lon="5.87499">
        <ele>712</ele>
        <time>2018-05-16T13:58:47Z</time>
      </trkpt>
      <trkpt lat="44.31689" lon="5.87499">
        <ele>713</ele>
        <time>2018-05-16T13:59:47Z</time>
      </trkpt>
      <trkpt lat="44.31713" lon="5.8751">
        <ele>714</ele>
        <time>2018-05-16T14:00:47Z</time>
      </trkpt>
      <trkpt lat="44.31729" lon="5.87511">
        <ele>716</ele>
        <time>2018-05-16T14:01:47Z</time>
      </trkpt>
      <trkpt lat="44.31761" lon="5.87485">
        <ele>725</ele>
        <time>2018-05-16T14:02:47Z</time>
      </trkpt>
      <trkpt lat="44.31779" lon="5.87486">
        <ele>728</ele>
        <time>2018-05-16T14:03:47Z</time>
      </trkpt>
      <trkpt lat="44.3181" lon="5.87522">
        <ele>726</ele>
        <time>2018-05-16T14:04:47Z</time>
      </trkpt>
      <trkpt lat="44.31842" lon="5.87553">
        <ele>723</ele>
        <time>2018-05-16T14:05:47Z</time>
      </trkpt>
      <trkpt lat="44.31858" lon="5.87563">
        <ele>722</ele>
        <time>2018-05-16T14:06:47Z</time>
      </trkpt>
      <trkpt lat="44.31892" lon="5.8754">
        <ele>729</ele>
        <time>2018-05-16T14:07:47Z</time>
      </trkpt>
      <trkpt lat="44.31929" lon="5.8752">
        <ele>733</ele>
        <time>2018-05-16T14:08:47Z</time>
      </trkpt>
      <trkpt lat="44.31956" lon="5.87506">
        <ele>732</ele>
        <time>2018-05-16T14:09:47Z</time>
      </trkpt>
      <trkpt lat="44.31974" lon="5.87517">
        <ele>730</ele>
        <time>2018-05-16T14:10:47Z</time>
      </trkpt>
      <trkpt lat="44.31996" lon="5.87462">
        <ele>730</ele>
        <time>2018-05-16T14:11:47Z</time>
      </trkpt>
      <trkpt lat="44.3202" lon="5.87413">
        <ele>727</ele>
        <time>2018-05-16T14:12:47Z</time>
      </trkpt>
      <trkpt lat="44.32031" lon="5.87345">
        <ele>726</ele>
        <time>2018-05-16T14:13:47Z</time>
      </trkpt>
      <trkpt lat="44.32072" lon="5.87266">
        <ele>725</ele>
        <time>2018-05-16T14:14:47Z</time>
      </trkpt>
      <trkpt lat="44.32108" lon="5.87209">
        <ele>722</ele>
        <time>2018-05-16T14:15:47Z</time>
      </trkpt>
      <trkpt lat="44.3213" lon="5.87154">
        <ele>720</ele>
        <time>2018-05-16T14:16:47Z</time>
      </trkpt>
      <trkpt lat="44.3214" lon="5.87107">
        <ele>720</ele>
        <time>2018-05-16T14:17:47Z</time>
      </trkpt>
      <trkpt lat="44.32131" lon="5.8706">
        <ele>721</ele>
        <time>2018-05-16T14:18:47Z</time>
      </trkpt>
      <trkpt lat="44.32112" lon="5.86996">
        <ele>724</ele>
        <time>2018-05-16T14:19:47Z</time>
      </trkpt>
      <trkpt lat="44.32094" lon="5.86926">
        <ele>724</ele>
        <time>2018-05-16T14:20:47Z</time>
      </trkpt>
      <trkpt lat="44.32102" lon="5.86823">
        <ele>725</ele>
        <time>2018-05-16T14:21:47Z</time>
      </trkpt>
      <trkpt lat="44.321" lon="5.86738">
        <ele>723</ele>
        <time>2018-05-16T14:22:47Z</time>
      </trkpt>
      <trkpt lat="44.32086" lon="5.86628">
        <ele>726</ele>
        <time>2018-05-16T14:23:47Z</time>
      </trkpt>
      <trkpt lat="44.32085" lon="5.86464">
        <ele>725</ele>
        <time>2018-05-16T14:24:47Z</time>
      </trkpt>
      <trkpt lat="44.32083" lon="5.86364">
        <ele>720</ele>
        <time>2018-05-16T14:25:47Z</time>
      </trkpt>
      <trkpt lat="44.32085" lon="5.86305">
        <ele>715</ele>
        <time>2018-05-16T14:26:47Z</time>
      </trkpt>
      <trkpt lat="44.32097" lon="5.86227">
        <ele>704</ele>
        <time>2018-05-16T14:27:47Z</time>
      </trkpt>
      <trkpt lat="44.32095" lon="5.86142">
        <ele>696</ele>
        <time>2018-05-16T14:28:47Z</time>
      </trkpt>
      <trkpt lat="44.32066" lon="5.86119">
        <ele>697</ele>
        <time>2018-05-16T14:29:47Z</time>
      </trkpt>
      <trkpt lat="44.32036" lon="5.8601">
        <ele>697</ele>
        <time>2018-05-16T14:30:47Z</time>
      </trkpt>
      <trkpt lat="44.32074" lon="5.85868">
        <ele>699</ele>
        <time>2018-05-16T14:31:47Z</time>
      </trkpt>
      <trkpt lat="44.32133" lon="5.85806">
        <ele>690</ele>
        <time>2018-05-16T14:32:47Z</time>
      </trkpt>
      <trkpt lat="44.32141" lon="5.8575">
        <ele>685</ele>
        <time>2018-05-16T14:33:47Z</time>
      </trkpt>
      <trkpt lat="44.32145" lon="5.85631">
        <ele>676</ele>
        <time>2018-05-16T14:34:47Z</time>
      </trkpt>
      <trkpt lat="44.32114" lon="5.85617">
        <ele>673</ele>
        <time>2018-05-16T14:35:47Z</time>
      </trkpt>
      <trkpt lat="44.32103" lon="5.856">
        <ele>672</ele>
        <time>2018-05-16T14:36:47Z</time>
      </trkpt>
      <trkpt lat="44.32109" lon="5.85551">
        <ele>671</ele>
        <time>2018-05-16T14:37:47Z</time>
      </trkpt>
      <trkpt lat="44.32139" lon="5.85471">
        <ele>666</ele>
        <time>2018-05-16T14:38:47Z</time>
      </trkpt>
      <trkpt lat="44.32143" lon="5.85418">
        <ele>661</ele>
        <time>2018-05-16T14:39:47Z</time>
      </trkpt>
      <trkpt lat="44.32105" lon="5.85419">
        <ele>671</ele>
        <time>2018-05-16T14:40:47Z</time>
      </trkpt>
      <trkpt lat="44.32082" lon="5.85417">
        <ele>677</ele>
        <time>2018-05-16T14:41:47Z</time>
      </trkpt>
      <trkpt lat="44.32069" lon="5.85395">
        <ele>676</ele>
        <time>2018-05-16T14:42:47Z</time>
      </trkpt>
      <trkpt lat="44.32102" lon="5.85378">
        <ele>669</ele>
        <time>2018-05-16T14:43:47Z</time>
      </trkpt>
      <trkpt lat="44.32087" lon="5.85352">
        <ele>671</ele>
        <time>2018-05-16T14:44:47Z</time>
      </trkpt>
      <trkpt lat="44.32087" lon="5.85349">
        <ele>671</ele>
        <time>2018-05-16T14:45:47Z</time>
      </trkpt>
      <trkpt lat="44.32063" lon="5.85313">
        <ele>669</ele>
        <time>2018-05-16T14:46:47Z</time>
      </trkpt>
      <trkpt lat="44.32058" lon="5.85272">
        <ele>666</ele>
        <time>2018-05-16T14:47:47Z</time>
      </trkpt>
      <trkpt lat="44.32035" lon="5.85286">
        <ele>668</ele>
        <time>2018-05-16T14:48:47Z</time>
      </trkpt>
      <trkpt lat="44.32031" lon="5.85267">
        <ele>667</ele>
        <time>2018-05-16T14:49:47Z</time>
      </trkpt>
      <trkpt lat="44.32032" lon="5.85245">
        <ele>666</ele>
        <time>2018-05-16T14:50:47Z</time>
      </trkpt>
      <trkpt lat="44.32064" lon="5.85222">
        <ele>663</ele>
        <time>2018-05-16T14:51:47Z</time>
      </trkpt>
      <trkpt lat="44.32083" lon="5.85182">
        <ele>662</ele>
        <time>2018-05-16T14:52:47Z</time>
      </trkpt>
      <trkpt lat="44.32075" lon="5.8516">
        <ele>662</ele>
        <time>2018-05-16T14:53:47Z</time>
      </trkpt>
      <trkpt lat="44.32066" lon="5.85147">
        <ele>662</ele>
        <time>2018-05-16T14:54:47Z</time>
      </trkpt>
      <trkpt lat="44.32067" lon="5.85116">
        <ele>662</ele>
        <time>2018-05-16T14:55:47Z</time>
      </trkpt>
      <trkpt lat="44.32088" lon="5.85104">
        <ele>662</ele>
        <time>2018-05-16T14:56:47Z</time>
      </trkpt>
      <trkpt lat="44.32089" lon="5.8506">
        <ele>661</ele>
        <time>2018-05-16T14:57:47Z</time>
      </trkpt>
      <trkpt lat="44.32075" lon="5.85019">
        <ele>661</ele>
        <time>2018-05-16T14:58:47Z</time>
      </trkpt>
      <trkpt lat="44.3209" lon="5.8496">
        <ele>659</ele>
        <time>2018-05-16T14:59:47Z</time>
      </trkpt>
      <trkpt lat="44.32102" lon="5.84942">
        <ele>655</ele>
        <time>2018-05-16T15:00:47Z</time>
      </trkpt>
      <trkpt lat="44.32204" lon="5.84927">
        <ele>628</ele>
        <time>2018-05-16T15:01:47Z</time>
      </trkpt>
      <trkpt lat="44.32196" lon="5.84892">
        <ele>630</ele>
        <time>2018-05-16T15:02:47Z</time>
      </trkpt>
      <trkpt lat="44.32179" lon="5.84862">
        <ele>632</ele>
        <time>2018-05-16T15:03:47Z</time>
      </trkpt>
      <trkpt lat="44.32146" lon="5.84823">
        <ele>640</ele>
        <time>2018-05-16T15:04:47Z</time>
      </trkpt>
      <trkpt lat="44.32112" lon="5.8478">
        <ele>649</ele>
        <time>2018-05-16T15:05:47Z</time>
      </trkpt>
      <trkpt lat="44.32081" lon="5.84747">
        <ele>653</ele>
        <time>2018-05-16T15:06:47Z</time>
      </trkpt>
      <trkpt lat="44.31998" lon="5.84676">
        <ele>648</ele>
        <time>2018-05-16T15:07:47Z</time>
      </trkpt>
      <trkpt lat="44.31956" lon="5.84648">
        <ele>643</ele>
        <time>2018-05-16T15:08:47Z</time>
      </trkpt>
      <trkpt lat="44.31927" lon="5.8463">
        <ele>640</ele>
        <time>2018-05-16T15:09:47Z</time>
      </trkpt>
      <trkpt lat="44.31912" lon="5.84611">
        <ele>638</ele>
        <time>2018-05-16T15:10:47Z</time>
      </trkpt>
      <trkpt lat="44.31894" lon="5.84547">
        <ele>633</ele>
        <time>2018-05-16T15:11:47Z</time>
      </trkpt>
      <trkpt lat="44.31882" lon="5.84508">
        <ele>628</ele>
        <time>2018-05-16T15:12:47Z</time>
      </trkpt>
      <trkpt lat="44.31843" lon="5.84456">
        <ele>622</ele>
        <time>2018-05-16T15:13:47Z</time>
      </trkpt>
      <trkpt lat="44.31812" lon="5.84432">
        <ele>619</ele>
        <time>2018-05-16T15:14:47Z</time>
      </trkpt>
      <trkpt lat="44.31794" lon="5.8445">
        <ele>618</ele>
        <time>2018-05-16T15:15:47Z</time>
      </trkpt>
      <trkpt lat="44.31773" lon="5.8447">
        <ele>616</ele>
        <time>2018-05-16T15:16:47Z</time>
      </trkpt>
      <trkpt lat="44.3175" lon="5.84491">
        <ele>613</ele>
        <time>2018-05-16T15:17:47Z</time>
      </trkpt>
      <trkpt lat="44.3176" lon="5.84451">
        <ele>616</ele>
        <time>2018-05-16T15:18:47Z</time>
      </trkpt>
      <trkpt lat="44.31756" lon="5.84419">
        <ele>617</ele>
        <time>2018-05-16T15:19:47Z</time>
      </trkpt>
      <trkpt lat="44.31737" lon="5.84387">
        <ele>614</ele>
        <time>2018-05-16T15:20:47Z</time>
      </trkpt>
      <trkpt lat="44.31712" lon="5.84347">
        <ele>611</ele>
        <time>2018-05-16T15:21:47Z</time>
      </trkpt>
      <trkpt lat="44.31694" lon="5.84324">
        <ele>609</ele>
        <time>2018-05-16T15:22:47Z</time>
      </trkpt>
      <trkpt lat="44.31676" lon="5.8433">
        <ele>608</ele>
        <time>2018-05-16T15:23:47Z</time>
      </trkpt>
      <trkpt lat="44.31661" lon="5.84313">
        <ele>606</ele>
        <time>2018-05-16T15:24:47Z</time>
      </trkpt>
      <trkpt lat="44.3166" lon="5.8426">
        <ele>605</ele>
        <time>2018-05-16T15:25:47Z</time>
      </trkpt>
      <trkpt lat="44.31662" lon="5.8421">
        <ele>603</ele>
        <time>2018-05-16T15:26:47Z</time>
      </trkpt>
      <trkpt lat="44.31656" lon="5.84193">
        <ele>602</ele>
        <time>2018-05-16T15:27:47Z</time>
      </trkpt>
      <trkpt lat="44.3168" lon="5.84142">
        <ele>597</ele>
        <time>2018-05-16T15:28:47Z</time>
      </trkpt>
      <trkpt lat="44.31683" lon="5.84101">
        <ele>595</ele>
        <time>2018-05-16T15:29:47Z</time>
      </trkpt>
      <trkpt lat="44.31671" lon="5.84053">
        <ele>592</ele>
        <time>2018-05-16T15:30:47Z</time>
      </trkpt>
      <trkpt lat="44.31656" lon="5.8404">
        <ele>590</ele>
        <time>2018-05-16T15:31:47Z</time>
      </trkpt>
      <trkpt lat="44.31615" lon="5.84066">
        <ele>595</ele>
        <time>2018-05-16T15:32:47Z</time>
      </trkpt>
      <trkpt lat="44.31541" lon="5.84061">
        <ele>593</ele>
        <time>2018-05-16T15:33:47Z</time>
      </trkpt>
      <trkpt lat="44.31491" lon="5.84067">
        <ele>590</ele>
        <time>2018-05-16T15:34:47Z</time>
      </trkpt>
      <trkpt lat="44.31432" lon="5.84092">
        <ele>585</ele>
        <time>2018-05-16T15:35:47Z</time>
      </trkpt>
      <trkpt lat="44.31379" lon="5.84123">
        <ele>583</ele>
        <time>2018-05-16T15:36:47Z</time>
      </trkpt>
      <trkpt lat="44.31344" lon="5.84146">
        <ele>579</ele>
        <time>2018-05-16T15:37:47Z</time>
      </trkpt>
      <trkpt lat="44.31325" lon="5.84189">
        <ele>578</ele>
        <time>2018-05-16T15:38:47Z</time>
      </trkpt>
      <trkpt lat="44.31314" lon="5.84197">
        <ele>578</ele>
        <time>2018-05-16T15:39:47Z</time>
      </trkpt>
      <trkpt lat="44.31182" lon="5.84214">
        <ele>577</ele>
        <time>2018-05-16T15:40:47Z</time>
      </trkpt>
      <trkpt lat="44.31145" lon="5.84187">
        <ele>575</ele>
        <time>2018-05-16T15:41:47Z</time>
      </trkpt>
      <trkpt lat="44.30976" lon="5.84045">
        <ele>570</ele>
        <time>2018-05-16T15:42:47Z</time>
      </trkpt>
      <trkpt lat="44.30954" lon="5.8404">
        <ele>569</ele>
        <time>2018-05-16T15:43:47Z</time>
      </trkpt>
      <trkpt lat="44.31" lon="5.83871">
        <ele>569</ele>
        <time>2018-05-16T15:44:47Z</time>
      </trkpt>
      <trkpt lat="44.31033" lon="5.83553">
        <ele>567</ele>
        <time>2018-05-16T15:45:47Z</time>
      </trkpt>
      <trkpt lat="44.31053" lon="5.83122">
        <ele>567</ele>
        <time>2018-05-16T15:46:47Z</time>
      </trkpt>
      <trkpt lat="44.31094" lon="5.83049">
        <ele>566</ele>
        <time>2018-05-16T15:47:47Z</time>
      </trkpt>
      <trkpt lat="44.31095" lon="5.83012">
        <ele>566</ele>
        <time>2018-05-16T15:48:47Z</time>
      </trkpt>
      <trkpt lat="44.31067" lon="5.82963">
        <ele>565</ele>
        <time>2018-05-16T15:49:47Z</time>
      </trkpt>
      <trkpt lat="44.31077" lon="5.82882">
        <ele>564</ele>
        <time>2018-05-16T15:50:47Z</time>
      </trkpt>
      <trkpt lat="44.3111" lon="5.82824">
        <ele>564</ele>
        <time>2018-05-16T15:51:47Z</time>
      </trkpt>
      <trkpt lat="44.31098" lon="5.8277">
        <ele>562</ele>
        <time>2018-05-16T15:52:47Z</time>
      </trkpt>
      <trkpt lat="44.31075" lon="5.82584">
        <ele>559</ele>
        <time>2018-05-16T15:53:47Z</time>
      </trkpt>
      <trkpt lat="44.31073" lon="5.82509">
        <ele>558</ele>
        <time>2018-05-16T15:54:47Z</time>
      </trkpt>
      <trkpt lat="44.31023" lon="5.82452">
        <ele>556</ele>
        <time>2018-05-16T15:55:47Z</time>
      </trkpt>
      <trkpt lat="44.31156" lon="5.82285">
        <ele>558</ele>
        <time>2018-05-16T15:56:47Z</time>
      </trkpt>
      <trkpt lat="44.30968" lon="5.82064">
        <ele>554</ele>
        <time>2018-05-16T15:57:47Z</time>
      </trkpt>
      <trkpt lat="44.30789" lon="5.82078">
        <ele>558</ele>
        <time>2018-05-16T15:58:47Z</time>
      </trkpt>
      <trkpt lat="44.30697" lon="5.8221">
        <ele>565</ele>
        <time>2018-05-16T15:59:47Z</time>
      </trkpt>
      <trkpt lat="44.30629" lon="5.82303">
        <ele>559</ele>
        <time>2018-05-16T16:00:47Z</time>
      </trkpt>
      <trkpt lat="44.30304" lon="5.82342">
        <ele>564</ele>
        <time>2018-05-16T16:01:47Z</time>
      </trkpt>
      <trkpt lat="44.30245" lon="5.8237">
        <ele>561</ele>
        <time>2018-05-16T16:02:47Z</time>
      </trkpt>
      <trkpt lat="44.30307" lon="5.82393">
        <ele>556</ele>
        <time>2018-05-16T16:03:47Z</time>
      </trkpt>
      <trkpt lat="44.30075" lon="5.82403">
        <ele>553</ele>
        <time>2018-05-16T16:04:47Z</time>
      </trkpt>
      <trkpt lat="44.29882" lon="5.82376">
        <ele>552</ele>
        <time>2018-05-16T16:05:47Z</time>
      </trkpt>
      <trkpt lat="44.2984" lon="5.82354">
        <ele>552</ele>
        <time>2018-05-16T16:06:47Z</time>
      </trkpt>
      <trkpt lat="44.29728" lon="5.82394">
        <ele>545</ele>
        <time>2018-05-16T16:07:47Z</time>
      </trkpt>
      <trkpt lat="44.29524" lon="5.8246">
        <ele>544</ele>
        <time>2018-05-16T16:08:47Z</time>
      </trkpt>
      <trkpt lat="44.29407" lon="5.82456">
        <ele>549</ele>
        <time>2018-05-16T16:09:47Z</time>
      </trkpt>
      <trkpt lat="44.29222" lon="5.82548">
        <ele>542</ele>
        <time>2018-05-16T16:10:47Z</time>
      </trkpt>
      <trkpt lat="44.28892" lon="5.82662">
        <ele>540</ele>
        <time>2018-05-16T16:11:47Z</time>
      </trkpt>
      <trkpt lat="44.28755" lon="5.8271">
        <ele>537</ele>
        <time>2018-05-16T16:12:47Z</time>
      </trkpt>
      <trkpt lat="44.28703" lon="5.82672">
        <ele>536</ele>
        <time>2018-05-16T16:13:47Z</time>
      </trkpt>
      <trkpt lat="44.28655" lon="5.82472">
        <ele>547</ele>
        <time>2018-05-16T16:14:47Z</time>
      </trkpt>
      <trkpt lat="44.28619" lon="5.82398">
        <ele>545</ele>
        <time>2018-05-16T16:15:47Z</time>
      </trkpt>
      <trkpt lat="44.28671" lon="5.8232">
        <ele>550</ele>
        <time>2018-05-16T16:16:47Z</time>
      </trkpt>
      <trkpt lat="44.2869" lon="5.82296">
        <ele>553</ele>
        <time>2018-05-16T16:17:47Z</time>
      </trkpt>
      <trkpt lat="44.28706" lon="5.82269">
        <ele>555</ele>
        <time>2018-05-16T16:18:47Z</time>
      </trkpt>
      <trkpt lat="44.28621" lon="5.82201">
        <ele>552</ele>
        <time>2018-05-16T16:19:47Z</time>
      </trkpt>
      <trkpt lat="44.28476" lon="5.82091">
        <ele>550</ele>
        <time>2018-05-16T16:20:47Z</time>
      </trkpt>
      <trkpt lat="44.28439" lon="5.82048">
        <ele>551</ele>
        <time>2018-05-16T16:21:47Z</time>
      </trkpt>
      <trkpt lat="44.28337" lon="5.81926">
        <ele>562</ele>
        <time>2018-05-16T16:22:47Z</time>
      </trkpt>
      <trkpt lat="44.28271" lon="5.81885">
        <ele>562</ele>
        <time>2018-05-16T16:23:47Z</time>
      </trkpt>
      <trkpt lat="44.28229" lon="5.81851">
        <ele>562</ele>
        <time>2018-05-16T16:24:47Z</time>
      </trkpt>
      <trkpt lat="44.28177" lon="5.81788">
        <ele>561</ele>
        <time>2018-05-16T16:25:47Z</time>
      </trkpt>
      <trkpt lat="44.281" lon="5.81752">
        <ele>557</ele>
        <time>2018-05-16T16:26:47Z</time>
      </trkpt>
      <trkpt lat="44.28027" lon="5.8171">
        <ele>557</ele>
        <time>2018-05-16T16:27:47Z</time>
      </trkpt>
      <trkpt lat="44.27981" lon="5.81644">
        <ele>560</ele>
        <time>2018-05-16T16:28:47Z</time>
      </trkpt>
      <trkpt lat="44.27978" lon="5.816">
        <ele>562</ele>
        <time>2018-05-16T16:29:47Z</time>
      </trkpt>
      <trkpt lat="44.27885" lon="5.81482">
        <ele>561</ele>
        <time>2018-05-16T16:30:47Z</time>
      </trkpt>
      <trkpt lat="44.2792" lon="5.81393">
        <ele>571</ele>
        <time>2018-05-16T16:31:47Z</time>
      </trkpt>
      <trkpt lat="44.27929" lon="5.81256">
        <ele>596</ele>
        <time>2018-05-16T16:32:47Z</time>
      </trkpt>
      <trkpt lat="44.27784" lon="5.81194">
        <ele>608</ele>
        <time>2018-05-16T16:33:47Z</time>
      </trkpt>
      <trkpt lat="44.27914" lon="5.81145">
        <ele>631</ele>
        <time>2018-05-16T16:34:47Z</time>
      </trkpt>
      <trkpt lat="44.27807" lon="5.81107">
        <ele>642</ele>
        <time>2018-05-16T16:35:47Z</time>
      </trkpt>
      <trkpt lat="44.27763" lon="5.81076">
        <ele>644</ele>
        <time>2018-05-16T16:36:47Z</time>
      </trkpt>
      <trkpt lat="44.27722" lon="5.80958">
        <ele>669</ele>
        <time>2018-05-16T16:37:47Z</time>
      </trkpt>
      <trkpt lat="44.27767" lon="5.81023">
        <ele>663</ele>
        <time>2018-05-16T16:38:47Z</time>
      </trkpt>
      <trkpt lat="44.2787" lon="5.81042">
        <ele>671</ele>
        <time>2018-05-16T16:39:47Z</time>
      </trkpt>
      <trkpt lat="44.27938" lon="5.81025">
        <ele>675</ele>
        <time>2018-05-16T16:40:47Z</time>
      </trkpt>
      <trkpt lat="44.27939" lon="5.81009">
        <ele>682</ele>
        <time>2018-05-16T16:41:47Z</time>
      </trkpt>
      <trkpt lat="44.27858" lon="5.81001">
        <ele>687</ele>
        <time>2018-05-16T16:42:47Z</time>
      </trkpt>
      <trkpt lat="44.27753" lon="5.80913">
        <ele>698</ele>
        <time>2018-05-16T16:43:47Z</time>
      </trkpt>
      <trkpt lat="44.27697" lon="5.80822">
        <ele>692</ele>
        <time>2018-05-16T16:44:47Z</time>
      </trkpt>
      <trkpt lat="44.27761" lon="5.80729">
        <ele>729</ele>
        <time>2018-05-16T16:45:47Z</time>
      </trkpt>
      <trkpt lat="44.27733" lon="5.80617">
        <ele>730</ele>
        <time>2018-05-16T16:46:47Z</time>
      </trkpt>
      <trkpt lat="44.27927" lon="5.80517">
        <ele>770</ele>
        <time>2018-05-16T16:47:47Z</time>
      </trkpt>
      <trkpt lat="44.27995" lon="5.80511">
        <ele>780</ele>
        <time>2018-05-16T16:48:47Z</time>
      </trkpt>
      <trkpt lat="44.28135" lon="5.80432">
        <ele>771</ele>
        <time>2018-05-16T16:49:47Z</time>
      </trkpt>
      <trkpt lat="44.28221" lon="5.80337">
        <ele>770</ele>
        <time>2018-05-16T16:50:47Z</time>
      </trkpt>
      <trkpt lat="44.28355" lon="5.80286">
        <ele>779</ele>
        <time>2018-05-16T16:51:47Z</time>
      </trkpt>
      <trkpt lat="44.28462" lon="5.80324">
        <ele>793</ele>
        <time>2018-05-16T16:52:47Z</time>
      </trkpt>
      <trkpt lat="44.28668" lon="5.80346">
        <ele>808</ele>
        <time>2018-05-16T16:53:47Z</time>
      </trkpt>
      <trkpt lat="44.28798" lon="5.80313">
        <ele>826</ele>
        <time>2018-05-16T16:54:47Z</time>
      </trkpt>
      <trkpt lat="44.29034" lon="5.80318">
        <ele>855</ele>
        <time>2018-05-16T16:55:47Z</time>
      </trkpt>
      <trkpt lat="44.29034" lon="5.80315">
        <ele>854</ele>
        <time>2018-05-16T16:56:47Z</time>
      </trkpt>
      <trkpt lat="44.29023" lon="5.80302">
        <ele>853</ele>
        <time>2018-05-16T16:57:47Z</time>
      </trkpt>
      <trkpt lat="44.28939" lon="5.80181">
        <ele>840</ele>
        <time>2018-05-16T16:58:47Z</time>
      </trkpt>
      <trkpt lat="44.28922" lon="5.80026">
        <ele>831</ele>
        <time>2018-05-16T16:59:47Z</time>
      </trkpt>
      <trkpt lat="44.28894" lon="5.79971">
        <ele>826</ele>
        <time>2018-05-16T17:00:47Z</time>
      </trkpt>
      <trkpt lat="44.28793" lon="5.79893">
        <ele>811</ele>
        <time>2018-05-16T17:01:47Z</time>
      </trkpt>
      <trkpt lat="44.28794" lon="5.79871">
        <ele>813</ele>
        <time>2018-05-16T17:02:47Z</time>
      </trkpt>
      <trkpt lat="44.2884" lon="5.79849">
        <ele>817</ele>
        <time>2018-05-16T17:03:47Z</time>
      </trkpt>
      <trkpt lat="44.28714" lon="5.79769">
        <ele>804</ele>
        <time>2018-05-16T17:04:47Z</time>
      </trkpt>
      <trkpt lat="44.28667" lon="5.79754">
        <ele>802</ele>
        <time>2018-05-16T17:05:47Z</time>
      </trkpt>
      <trkpt lat="44.28599" lon="5.79825">
        <ele>786</ele>
        <time>2018-05-16T17:06:47Z</time>
      </trkpt>
      <trkpt lat="44.28563" lon="5.79632">
        <ele>778</ele>
        <time>2018-05-16T17:07:47Z</time>
      </trkpt>
      <trkpt lat="44.28489" lon="5.79536">
        <ele>763</ele>
        <time>2018-05-16T17:08:47Z</time>
      </trkpt>
      <trkpt lat="44.28219" lon="5.79404">
        <ele>736</ele>
        <time>2018-05-16T17:09:47Z</time>
      </trkpt>
      <trkpt lat="44.2822" lon="5.79366">
        <ele>734</ele>
        <time>2018-05-16T17:10:47Z</time>
      </trkpt>
      <trkpt lat="44.28272" lon="5.79354">
        <ele>734</ele>
        <time>2018-05-16T17:11:47Z</time>
      </trkpt>
      <trkpt lat="44.28331" lon="5.79345">
        <ele>731</ele>
        <time>2018-05-16T17:12:47Z</time>
      </trkpt>
      <trkpt lat="44.28403" lon="5.79359">
        <ele>731</ele>
        <time>2018-05-16T17:13:47Z</time>
      </trkpt>
      <trkpt lat="44.28489" lon="5.79326">
        <ele>721</ele>
        <time>2018-05-16T17:14:47Z</time>
      </trkpt>
      <trkpt lat="44.28492" lon="5.79298">
        <ele>712</ele>
        <time>2018-05-16T17:15:47Z</time>
      </trkpt>
      <trkpt lat="44.28445" lon="5.79305">
        <ele>713</ele>
        <time>2018-05-16T17:16:47Z</time>
      </trkpt>
      <trkpt lat="44.28411" lon="5.79315">
        <ele>716</ele>
        <time>2018-05-16T17:17:47Z</time>
      </trkpt>
      <trkpt lat="44.28362" lon="5.79284">
        <ele>709</ele>
        <time>2018-05-16T17:18:47Z</time>
      </trkpt>
      <trkpt lat="44.28285" lon="5.79235">
        <ele>702</ele>
        <time>2018-05-16T17:19:47Z</time>
      </trkpt>
      <trkpt lat="44.28239" lon="5.79208">
        <ele>701</ele>
        <time>2018-05-16T17:20:47Z</time>
      </trkpt>
      <trkpt lat="44.2819" lon="5.79176">
        <ele>702</ele>
        <time>2018-05-16T17:21:47Z</time>
      </trkpt>
      <trkpt lat="44.28126" lon="5.79057">
        <ele>683</ele>
        <time>2018-05-16T17:22:47Z</time>
      </trkpt>
      <trkpt lat="44.2808" lon="5.78957">
        <ele>659</ele>
        <time>2018-05-16T17:23:47Z</time>
      </trkpt>
      <trkpt lat="44.28092" lon="5.78854">
        <ele>656</ele>
        <time>2018-05-16T17:24:47Z</time>
      </trkpt>
      <trkpt lat="44.28121" lon="5.78884">
        <ele>660</ele>
        <time>2018-05-16T17:25:47Z</time>
      </trkpt>
      <trkpt lat="44.28138" lon="5.78963">
        <ele>666</ele>
        <time>2018-05-16T17:26:47Z</time>
      </trkpt>
      <trkpt lat="44.28199" lon="5.79102">
        <ele>686</ele>
        <time>2018-05-16T17:27:47Z</time>
      </trkpt>
      <trkpt lat="44.28256" lon="5.79165">
        <ele>685</ele>
        <time>2018-05-16T17:28:47Z</time>
      </trkpt>
      <trkpt lat="44.2836" lon="5.79209">
        <ele>691</ele>
        <time>2018-05-16T17:29:47Z</time>
      </trkpt>
      <trkpt lat="44.28429" lon="5.79235">
        <ele>695</ele>
        <time>2018-05-16T17:30:47Z</time>
      </trkpt>
      <trkpt lat="44.28557" lon="5.79249">
        <ele>702</ele>
        <time>2018-05-16T17:31:47Z</time>
      </trkpt>
      <trkpt lat="44.28635" lon="5.7921">
        <ele>708</ele>
        <time>2018-05-16T17:32:47Z</time>
      </trkpt>
      <trkpt lat="44.28689" lon="5.79185">
        <ele>712</ele>
        <time>2018-05-16T17:33:47Z</time>
      </trkpt>
      <trkpt lat="44.28748" lon="5.79186">
        <ele>722</ele>
        <time>2018-05-16T17:34:47Z</time>
      </trkpt>
      <trkpt lat="44.28714" lon="5.79133">
        <ele>725</ele>
        <time>2018-05-16T17:35:47Z</time>
      </trkpt>
      <trkpt lat="44.28651" lon="5.79129">
        <ele>717</ele>
        <time>2018-05-16T17:36:47Z</time>
      </trkpt>
      <trkpt lat="44.28558" lon="5.79086">
        <ele>726</ele>
        <time>2018-05-16T17:37:47Z</time>
      </trkpt>
      <trkpt lat="44.28491" lon="5.78985">
        <ele>730</ele>
        <time>2018-05-16T17:38:47Z</time>
      </trkpt>
      <trkpt lat="44.28455" lon="5.78911">
        <ele>732</ele>
        <time>2018-05-16T17:39:47Z</time>
      </trkpt>
      <trkpt lat="44.28466" lon="5.78864">
        <ele>735</ele>
        <time>2018-05-16T17:40:47Z</time>
      </trkpt>
      <trkpt lat="44.28524" lon="5.78805">
        <ele>745</ele>
        <time>2018-05-16T17:41:47Z</time>
      </trkpt>
      <trkpt lat="44.28548" lon="5.78744">
        <ele>750</ele>
        <time>2018-05-16T17:42:47Z</time>
      </trkpt>
      <trkpt lat="44.28524" lon="5.78658">
        <ele>749</ele>
        <time>2018-05-16T17:43:47Z</time>
      </trkpt>
      <trkpt lat="44.2853" lon="5.78605">
        <ele>746</ele>
        <time>2018-05-16T17:44:47Z</time>
      </trkpt>
      <trkpt lat="44.28645" lon="5.78537">
        <ele>765</ele>
        <time>2018-05-16T17:45:47Z</time>
      </trkpt>
      <trkpt lat="44.28599" lon="5.78475">
        <ele>756</ele>
        <time>2018-05-16T17:46:47Z</time>
      </trkpt>
      <trkpt lat="44.28603" lon="5.78368">
        <ele>766</ele>
        <time>2018-05-16T17:47:47Z</time>
      </trkpt>
      <trkpt lat="44.2862" lon="5.78257">
        <ele>768</ele>
        <time>2018-05-16T17:48:47Z</time>
      </trkpt>
      <trkpt lat="44.28672" lon="5.7816">
        <ele>773</ele>
        <time>2018-05-16T17:49:47Z</time>
      </trkpt>
      <trkpt lat="44.28721" lon="5.78109">
        <ele>782</ele>
        <time>2018-05-16T17:50:47Z</time>
      </trkpt>
      <trkpt lat="44.28704" lon="5.78083">
        <ele>775</ele>
        <time>2018-05-16T17:51:47Z</time>
      </trkpt>
      <trkpt lat="44.28674" lon="5.7805">
        <ele>774</ele>
        <time>2018-05-16T17:52:47Z</time>
      </trkpt>
      <trkpt lat="44.28613" lon="5.7804">
        <ele>769</ele>
        <time>2018-05-16T17:53:47Z</time>
      </trkpt>
      <trkpt lat="44.28582" lon="5.78013">
        <ele>771</ele>
        <time>2018-05-16T17:54:47Z</time>
      </trkpt>
      <trkpt lat="44.2859" lon="5.77926">
        <ele>781</ele>
        <time>2018-05-16T17:55:47Z</time>
      </trkpt>
      <trkpt lat="44.28583" lon="5.77725">
        <ele>785</ele>
        <time>2018-05-16T17:56:47Z</time>
      </trkpt>
      <trkpt lat="44.28544" lon="5.77594">
        <ele>783</ele>
        <time>2018-05-16T17:57:47Z</time>
      </trkpt>
      <trkpt lat="44.28526" lon="5.77462">
        <ele>788</ele>
        <time>2018-05-16T17:58:47Z</time>
      </trkpt>
      <trkpt lat="44.28527" lon="5.77405">
        <ele>789</ele>
        <time>2018-05-16T17:59:47Z</time>
      </trkpt>
      <trkpt lat="44.28563" lon="5.77339">
        <ele>796</ele>
        <time>2018-05-16T18:00:47Z</time>
      </trkpt>
      <trkpt lat="44.28559" lon="5.77254">
        <ele>801</ele>
        <time>2018-05-16T18:01:47Z</time>
      </trkpt>
      <trkpt lat="44.28542" lon="5.77221">
        <ele>805</ele>
        <time>2018-05-16T18:02:47Z</time>
      </trkpt>
      <trkpt lat="44.28474" lon="5.7723">
        <ele>797</ele>
        <time>2018-05-16T18:03:47Z</time>
      </trkpt>
      <trkpt lat="44.28432" lon="5.77202">
        <ele>800</ele>
        <time>2018-05-16T18:04:47Z</time>
      </trkpt>
      <trkpt lat="44.28375" lon="5.77158">
        <ele>802</ele>
        <time>2018-05-16T18:05:47Z</time>
      </trkpt>
      <trkpt lat="44.28343" lon="5.76984">
        <ele>821</ele>
        <time>2018-05-16T18:06:47Z</time>
      </trkpt>
      <trkpt lat="44.28358" lon="5.76913">
        <ele>832</ele>
        <time>2018-05-16T18:07:47Z</time>
      </trkpt>
      <trkpt lat="44.28324" lon="5.7686">
        <ele>834</ele>
        <time>2018-05-16T18:08:47Z</time>
      </trkpt>
      <trkpt lat="44.28311" lon="5.76778">
        <ele>840</ele>
        <time>2018-05-16T18:09:47Z</time>
      </trkpt>
      <trkpt lat="44.28384" lon="5.76733">
        <ele>852</ele>
        <time>2018-05-16T18:10:47Z</time>
      </trkpt>
      <trkpt lat="44.28425" lon="5.7666">
        <ele>857</ele>
        <time>2018-05-16T18:11:47Z</time>
      </trkpt>
      <trkpt lat="44.28447" lon="5.76671">
        <ele>860</ele>
        <time>2018-05-16T18:12:47Z</time>
      </trkpt>
      <trkpt lat="44.2847" lon="5.76716">
        <ele>860</ele>
        <time>2018-05-16T18:13:47Z</time>
      </trkpt>
      <trkpt lat="44.28498" lon="5.7668">
        <ele>865</ele>
        <time>2018-05-16T18:14:47Z</time>
      </trkpt>
      <trkpt lat="44.28667" lon="5.76455">
        <ele>889</ele>
        <time>2018-05-16T18:15:47Z</time>
      </trkpt>
      <trkpt lat="44.28743" lon="5.76272">
        <ele>900</ele>
        <time>2018-05-16T18:16:47Z</time>
      </trkpt>
      <trkpt lat="44.28768" lon="5.76186">
        <ele>907</ele>
        <time>2018-05-16T18:17:47Z</time>
      </trkpt>
      <trkpt lat="44.28806" lon="5.76125">
        <ele>918</ele>
        <time>2018-05-16T18:18:47Z</time>
      </trkpt>
      <trkpt lat="44.28836" lon="5.76024">
        <ele>926</ele>
        <time>2018-05-16T18:19:47Z</time>
      </trkpt>
      <trkpt lat="44.28889" lon="5.75789">
        <ele>950</ele>
        <time>2018-05-16T18:20:47Z</time>
      </trkpt>
      <trkpt lat="44.28912" lon="5.75674">
        <ele>964</ele>
        <time>2018-05-16T18:21:47Z</time>
      </trkpt>
      <trkpt lat="44.28886" lon="5.75576">
        <ele>960</ele>
        <time>2018-05-16T18:22:47Z</time>
      </trkpt>
      <trkpt lat="44.28893" lon="5.75495">
        <ele>955</ele>
        <time>2018-05-16T18:23:47Z</time>
      </trkpt>
      <trkpt lat="44.28942" lon="5.75457">
        <ele>966</ele>
        <time>2018-05-16T18:24:47Z</time>
      </trkpt>
      <trkpt lat="44.28951" lon="5.75382">
        <ele>963</ele>
        <time>2018-05-16T18:25:47Z</time>
      </trkpt>
      <trkpt lat="44.28942" lon="5.75169">
        <ele>960</ele>
        <time>2018-05-16T18:26:47Z</time>
      </trkpt>
      <trkpt lat="44.28965" lon="5.75076">
        <ele>968</ele>
        <time>2018-05-16T18:27:47Z</time>
      </trkpt>
      <trkpt lat="44.28927" lon="5.74917">
        <ele>966</ele>
        <time>2018-05-16T18:28:47Z</time>
      </trkpt>
      <trkpt lat="44.28903" lon="5.74747">
        <ele>967</ele>
        <time>2018-05-16T18:29:47Z</time>
      </trkpt>
      <trkpt lat="44.28856" lon="5.74593">
        <ele>966</ele>
        <time>2018-05-16T18:30:47Z</time>
      </trkpt>
      <trkpt lat="44.28825" lon="5.74504">
        <ele>961</ele>
        <time>2018-05-16T18:31:47Z</time>
      </trkpt>
      <trkpt lat="44.28858" lon="5.74459">
        <ele>978</ele>
        <time>2018-05-16T18:32:47Z</time>
      </trkpt>
      <trkpt lat="44.28844" lon="5.74411">
        <ele>974</ele>
        <time>2018-05-16T18:33:47Z</time>
      </trkpt>
      <trkpt lat="44.28816" lon="5.74369">
        <ele>969</ele>
        <time>2018-05-16T18:34:47Z</time>
      </trkpt>
      <trkpt lat="44.28773" lon="5.74084">
        <ele>979</ele>
        <time>2018-05-16T18:35:47Z</time>
      </trkpt>
      <trkpt lat="44.28747" lon="5.73992">
        <ele>982</ele>
        <time>2018-05-16T18:36:47Z</time>
      </trkpt>
      <trkpt lat="44.28693" lon="5.73913">
        <ele>978</ele>
        <time>2018-05-16T18:37:47Z</time>
      </trkpt>
      <trkpt lat="44.28642" lon="5.73744">
        <ele>980</ele>
        <time>2018-05-16T18:38:47Z</time>
      </trkpt>
      <trkpt lat="44.28642" lon="5.7365">
        <ele>990</ele>
        <time>2018-05-16T18:39:47Z</time>
      </trkpt>
      <trkpt lat="44.28622" lon="5.73586">
        <ele>987</ele>
        <time>2018-05-16T18:40:47Z</time>
      </trkpt>
      <trkpt lat="44.28604" lon="5.73441">
        <ele>989</ele>
        <time>2018-05-16T18:41:47Z</time>
      </trkpt>
      <trkpt lat="44.28566" lon="5.73354">
        <ele>978</ele>
        <time>2018-05-16T18:42:47Z</time>
      </trkpt>
      <trkpt lat="44.28577" lon="5.7328">
        <ele>986</ele>
        <time>2018-05-16T18:43:47Z</time>
      </trkpt>
      <trkpt lat="44.28554" lon="5.73238">
        <ele>980</ele>
        <time>2018-05-16T18:44:47Z</time>
      </trkpt>
      <trkpt lat="44.28533" lon="5.73205">
        <ele>976</ele>
        <time>2018-05-16T18:45:47Z</time>
      </trkpt>
      <trkpt lat="44.28511" lon="5.73163">
        <ele>972</ele>
        <time>2018-05-16T18:46:47Z</time>
      </trkpt>
      <trkpt lat="44.28475" lon="5.73167">
        <ele>960</ele>
        <time>2018-05-16T18:47:47Z</time>
      </trkpt>
      <trkpt lat="44.28476" lon="5.73055">
        <ele>967</ele>
        <time>2018-05-16T18:48:47Z</time>
      </trkpt>
      <trkpt lat="44.28465" lon="5.73001">
        <ele>965</ele>
        <time>2018-05-16T18:49:47Z</time>
      </trkpt>
      <trkpt lat="44.28438" lon="5.72911">
        <ele>961</ele>
        <time>2018-05-16T18:50:47Z</time>
      </trkpt>
      <trkpt lat="44.28401" lon="5.72865">
        <ele>946</ele>
        <time>2018-05-16T18:51:47Z</time>
      </trkpt>
      <trkpt lat="44.28424" lon="5.72801">
        <ele>954</ele>
        <time>2018-05-16T18:52:47Z</time>
      </trkpt>
      <trkpt lat="44.28426" lon="5.72726">
        <ele>954</ele>
        <time>2018-05-16T18:53:47Z</time>
      </trkpt>
      <trkpt lat="44.28341" lon="5.72495">
        <ele>936</ele>
        <time>2018-05-16T18:54:47Z</time>
      </trkpt>
      <trkpt lat="44.28337" lon="5.72482">
        <ele>936</ele>
        <time>2018-05-16T18:55:47Z</time>
      </trkpt>
      <trkpt lat="44.28246" lon="5.72361">
        <ele>929</ele>
        <time>2018-05-16T18:56:47Z</time>
      </trkpt>
      <trkpt lat="44.28224" lon="5.72335">
        <ele>928</ele>
        <time>2018-05-16T18:57:47Z</time>
      </trkpt>
      <trkpt lat="44.28214" lon="5.723">
        <ele>927</ele>
        <time>2018-05-16T18:58:47Z</time>
      </trkpt>
      <trkpt lat="44.28196" lon="5.72289">
        <ele>923</ele>
        <time>2018-05-16T18:59:47Z</time>
      </trkpt>
      <trkpt lat="44.28192" lon="5.72433">
        <ele>914</ele>
        <time>2018-05-16T19:00:47Z</time>
      </trkpt>
      <trkpt lat="44.28162" lon="5.72516">
        <ele>903</ele>
        <time>2018-05-16T19:01:47Z</time>
      </trkpt>
      <trkpt lat="44.28111" lon="5.72569">
        <ele>893</ele>
        <time>2018-05-16T19:02:47Z</time>
      </trkpt>
      <trkpt lat="44.28051" lon="5.72265">
        <ele>885</ele>
        <time>2018-05-16T19:03:47Z</time>
      </trkpt>
      <trkpt lat="44.28029" lon="5.72163">
        <ele>875</ele>
        <time>2018-05-16T19:04:47Z</time>
      </trkpt>
      <trkpt lat="44.27972" lon="5.72056">
        <ele>858</ele>
        <time>2018-05-16T19:05:47Z</time>
      </trkpt>
      <trkpt lat="44.27954" lon="5.72055">
        <ele>853</ele>
        <time>2018-05-16T19:06:47Z</time>
      </trkpt>
      <trkpt lat="44.2797" lon="5.71812">
        <ele>864</ele>
        <time>2018-05-16T19:07:47Z</time>
      </trkpt>
      <trkpt lat="44.27925" lon="5.71687">
        <ele>867</ele>
        <time>2018-05-16T19:08:47Z</time>
      </trkpt>
      <trkpt lat="44.27854" lon="5.71636">
        <ele>864</ele>
        <time>2018-05-16T19:09:47Z</time>
      </trkpt>
      <trkpt lat="44.279" lon="5.71535">
        <ele>881</ele>
        <time>2018-05-16T19:10:47Z</time>
      </trkpt>
      <trkpt lat="44.27881" lon="5.71506">
        <ele>882</ele>
        <time>2018-05-16T19:11:47Z</time>
      </trkpt>
      <trkpt lat="44.27858" lon="5.71505">
        <ele>881</ele>
        <time>2018-05-16T19:12:47Z</time>
      </trkpt>
      <trkpt lat="44.27837" lon="5.71409">
        <ele>886</ele>
        <time>2018-05-16T19:13:47Z</time>
      </trkpt>
      <trkpt lat="44.27832" lon="5.71262">
        <ele>890</ele>
        <time>2018-05-16T19:14:47Z</time>
      </trkpt>
      <trkpt lat="44.27857" lon="5.71035">
        <ele>908</ele>
        <time>2018-05-16T19:15:47Z</time>
      </trkpt>
      <trkpt lat="44.27818" lon="5.71001">
        <ele>900</ele>
        <time>2018-05-16T19:16:47Z</time>
      </trkpt>
      <trkpt lat="44.27794" lon="5.70956">
        <ele>902</ele>
        <time>2018-05-16T19:17:47Z</time>
      </trkpt>
      <trkpt lat="44.27803" lon="5.70884">
        <ele>915</ele>
        <time>2018-05-16T19:18:47Z</time>
      </trkpt>
      <trkpt lat="44.27779" lon="5.7088">
        <ele>913</ele>
        <time>2018-05-16T19:19:47Z</time>
      </trkpt>
      <trkpt lat="44.27711" lon="5.70819">
        <ele>922</ele>
        <time>2018-05-16T19:20:47Z</time>
      </trkpt>
      <trkpt lat="44.27669" lon="5.70726">
        <ele>928</ele>
        <time>2018-05-16T19:21:47Z</time>
      </trkpt>
      <trkpt lat="44.27687" lon="5.70642">
        <ele>926</ele>
        <time>2018-05-16T19:22:47Z</time>
      </trkpt>
      <trkpt lat="44.2774" lon="5.70586">
        <ele>932</ele>
        <time>2018-05-16T19:23:47Z</time>
      </trkpt>
      <trkpt lat="44.27644" lon="5.70436">
        <ele>933</ele>
        <time>2018-05-16T19:24:47Z</time>
      </trkpt>
      <trkpt lat="44.27606" lon="5.70359">
        <ele>931</ele>
        <time>2018-05-16T19:25:47Z</time>
      </trkpt>
      <trkpt lat="44.27595" lon="5.70261">
        <ele>935</ele>
        <time>2018-05-16T19:26:47Z</time>
      </trkpt>
      <trkpt lat="44.27611" lon="5.70203">
        <ele>944</ele>
        <time>2018-05-16T19:27:47Z</time>
      </trkpt>
      <trkpt lat="44.27575" lon="5.7011">
        <ele>941</ele>
        <time>2018-05-16T19:28:47Z</time>
      </trkpt>
      <trkpt lat="44.27551" lon="5.69958">
        <ele>945</ele>
        <time>2018-05-16T19:29:47Z</time>
      </trkpt>
      <trkpt lat="44.27486" lon="5.69797">
        <ele>942</ele>
        <time>2018-05-16T19:30:47Z</time>
      </trkpt>
      <trkpt lat="44.27506" lon="5.69432">
        <ele>974</ele>
        <time>2018-05-16T19:31:47Z</time>
      </trkpt>
      <trkpt lat="44.27504" lon="5.69272">
        <ele>988</ele>
        <time>2018-05-16T19:32:47Z</time>
      </trkpt>
      <trkpt lat="44.27489" lon="5.69106">
        <ele>992</ele>
        <time>2018-05-16T19:33:47Z</time>
      </trkpt>
      <trkpt lat="44.27489" lon="5.68955">
        <ele>1001</ele>
        <time>2018-05-16T19:34:47Z</time>
      </trkpt>
      <trkpt lat="44.27436" lon="5.68849">
        <ele>995</ele>
        <time>2018-05-16T19:35:47Z</time>
      </trkpt>
      <trkpt lat="44.27383" lon="5.68686">
        <ele>1000</ele>
        <time>2018-05-16T19:36:47Z</time>
      </trkpt>
      <trkpt lat="44.27364" lon="5.68572">
        <ele>1000</ele>
        <time>2018-05-16T19:37:47Z</time>
      </trkpt>
      <trkpt lat="44.27388" lon="5.68348">
        <ele>1009</ele>
        <time>2018-05-16T19:38:47Z</time>
      </trkpt>
      <trkpt lat="44.27348" lon="5.68039">
        <ele>1008</ele>
        <time>2018-05-16T19:39:47Z</time>
      </trkpt>
      <trkpt lat="44.27346" lon="5.67829">
        <ele>1019</ele>
        <time>2018-05-16T19:40:47Z</time>
      </trkpt>
      <trkpt lat="44.27321" lon="5.67758">
        <ele>1021</ele>
        <time>2018-05-16T19:41:47Z</time>
      </trkpt>
      <trkpt lat="44.27246" lon="5.67644">
        <ele>1016</ele>
        <time>2018-05-16T19:42:47Z</time>
      </trkpt>
      <trkpt lat="44.27202" lon="5.67523">
        <ele>1016</ele>
        <time>2018-05-16T19:43:47Z</time>
      </trkpt>
      <trkpt lat="44.27177" lon="5.67449">
        <ele>1025</ele>
        <time>2018-05-16T19:44:47Z</time>
      </trkpt>
      <trkpt lat="44.27101" lon="5.67373">
        <ele>1017</ele>
        <time>2018-05-16T19:45:47Z</time>
      </trkpt>
      <trkpt lat="44.27006" lon="5.67242">
        <ele>1006</ele>
        <time>2018-05-16T19:46:47Z</time>
      </trkpt>
      <trkpt lat="44.26922" lon="5.67187">
        <ele>987</ele>
        <time>2018-05-16T19:47:47Z</time>
      </trkpt>
      <trkpt lat="44.26893" lon="5.67126">
        <ele>980</ele>
        <time>2018-05-16T19:48:47Z</time>
      </trkpt>
      <trkpt lat="44.26821" lon="5.67046">
        <ele>962</ele>
        <time>2018-05-16T19:49:47Z</time>
      </trkpt>
      <trkpt lat="44.26748" lon="5.66851">
        <ele>947</ele>
        <time>2018-05-16T19:50:47Z</time>
      </trkpt>
      <trkpt lat="44.26688" lon="5.66816">
        <ele>936</ele>
        <time>2018-05-16T19:51:47Z</time>
      </trkpt>
      <trkpt lat="44.26644" lon="5.66779">
        <ele>931</ele>
        <time>2018-05-16T19:52:47Z</time>
      </trkpt>
      <trkpt lat="44.26567" lon="5.66587">
        <ele>927</ele>
        <time>2018-05-16T19:53:47Z</time>
      </trkpt>
      <trkpt lat="44.26564" lon="5.66461">
        <ele>928</ele>
        <time>2018-05-16T19:54:47Z</time>
      </trkpt>
      <trkpt lat="44.2651" lon="5.66326">
        <ele>924</ele>
        <time>2018-05-16T19:55:47Z</time>
      </trkpt>
      <trkpt lat="44.26446" lon="5.66363">
        <ele>900</ele>
        <time>2018-05-16T19:56:47Z</time>
      </trkpt>
      <trkpt lat="44.26412" lon="5.66289">
        <ele>896</ele>
        <time>2018-05-16T19:57:47Z</time>
      </trkpt>
      <trkpt lat="44.26412" lon="5.66192">
        <ele>904</ele>
        <time>2018-05-16T19:58:47Z</time>
      </trkpt>
      <trkpt lat="44.26358" lon="5.65907">
        <ele>906</ele>
        <time>2018-05-16T19:59:47Z</time>
      </trkpt>
      <trkpt lat="44.26272" lon="5.65915">
        <ele>892</ele>
        <time>2018-05-16T20:00:47Z</time>
      </trkpt>
      <trkpt lat="44.26238" lon="5.65866">
        <ele>892</ele>
        <time>2018-05-16T20:01:47Z</time>
      </trkpt>
      <trkpt lat="44.26221" lon="5.65746">
        <ele>899</ele>
        <time>2018-05-16T20:02:47Z</time>
      </trkpt>
      <trkpt lat="44.26187" lon="5.65706">
        <ele>893</ele>
        <time>2018-05-16T20:03:47Z</time>
      </trkpt>
      <trkpt lat="44.26079" lon="5.65484">
        <ele>882</ele>
        <time>2018-05-16T20:04:47Z</time>
      </trkpt>
      <trkpt lat="44.26101" lon="5.65426">
        <ele>893</ele>
        <time>2018-05-16T20:05:47Z</time>
      </trkpt>
      <trkpt lat="44.26045" lon="5.65394">
        <ele>886</ele>
        <time>2018-05-16T20:06:47Z</time>
      </trkpt>
      <trkpt lat="44.25954" lon="5.65298">
        <ele>879</ele>
        <time>2018-05-16T20:07:47Z</time>
      </trkpt>
      <trkpt lat="44.25894" lon="5.65113">
        <ele>869</ele>
        <time>2018-05-16T20:08:47Z</time>
      </trkpt>
      <trkpt lat="44.25874" lon="5.64952">
        <ele>865</ele>
        <time>2018-05-16T20:09:47Z</time>
      </trkpt>
      <trkpt lat="44.25813" lon="5.6482">
        <ele>857</ele>
        <time>2018-05-16T20:10:47Z</time>
      </trkpt>
      <trkpt lat="44.2572" lon="5.64702">
        <ele>840</ele>
        <time>2018-05-16T20:11:47Z</time>
      </trkpt>
      <trkpt lat="44.25712" lon="5.64583">
        <ele>837</ele>
        <time>2018-05-16T20:12:47Z</time>
      </trkpt>
      <trkpt lat="44.25654" lon="5.6442">
        <ele>827</ele>
        <time>2018-05-16T20:13:47Z</time>
      </trkpt>
      <trkpt lat="44.25587" lon="5.6434">
        <ele>820</ele>
        <time>2018-05-16T20:14:47Z</time>
      </trkpt>
      <trkpt lat="44.25529" lon="5.64309">
        <ele>814</ele>
        <time>2018-05-16T20:15:47Z</time>
      </trkpt>
      <trkpt lat="44.25411" lon="5.64048">
        <ele>808</ele>
        <time>2018-05-16T20:16:47Z</time>
      </trkpt>
      <trkpt lat="44.2536" lon="5.64008">
        <ele>804</ele>
        <time>2018-05-16T20:17:47Z</time>
      </trkpt>
      <trkpt lat="44.25131" lon="5.63794">
        <ele>783</ele>
        <time>2018-05-16T20:18:47Z</time>
      </trkpt>
      <trkpt lat="44.25062" lon="5.63756">
        <ele>792</ele>
        <time>2018-05-16T20:19:47Z</time>
      </trkpt>
      <trkpt lat="44.24982" lon="5.63807">
        <ele>788</ele>
        <time>2018-05-16T20:20:47Z</time>
      </trkpt>
      <trkpt lat="44.24929" lon="5.63826">
        <ele>783</ele>
        <time>2018-05-16T20:21:47Z</time>
      </trkpt>
      <trkpt lat="44.2472" lon="5.63626">
        <ele>796</ele>
        <time>2018-05-16T20:22:47Z</time>
      </trkpt>
      <trkpt lat="44.24743" lon="5.63437">
        <ele>806</ele>
        <time>2018-05-16T20:23:47Z</time>
      </trkpt>
      <trkpt lat="44.24723" lon="5.63151">
        <ele>821</ele>
        <time>2018-05-16T20:24:47Z</time>
      </trkpt>
      <trkpt lat="44.24651" lon="5.62977">
        <ele>815</ele>
        <time>2018-05-16T20:25:47Z</time>
      </trkpt>
      <trkpt lat="44.2463" lon="5.62863">
        <ele>818</ele>
        <time>2018-05-16T20:26:47Z</time>
      </trkpt>
      <trkpt lat="44.24601" lon="5.62783">
        <ele>813</ele>
        <time>2018-05-16T20:27:47Z</time>
      </trkpt>
      <trkpt lat="44.24564" lon="5.62725">
        <ele>803</ele>
        <time>2018-05-16T20:28:47Z</time>
      </trkpt>
      <trkpt lat="44.24522" lon="5.62626">
        <ele>794</ele>
        <time>2018-05-16T20:29:47Z</time>
      </trkpt>
      <trkpt lat="44.24507" lon="5.62524">
        <ele>798</ele>
        <time>2018-05-16T20:30:47Z</time>
      </trkpt>
      <trkpt lat="44.24484" lon="5.62495">
        <ele>798</ele>
        <time>2018-05-16T20:31:47Z</time>
      </trkpt>
      <trkpt lat="44.24424" lon="5.62319">
        <ele>808</ele>
        <time>2018-05-16T20:32:47Z</time>
      </trkpt>
      <trkpt lat="44.24411" lon="5.62281">
        <ele>807</ele>
        <time>2018-05-16T20:33:47Z</time>
      </trkpt>
      <trkpt lat="44.24356" lon="5.62309">
        <ele>790</ele>
        <time>2018-05-16T20:34:47Z</time>
      </trkpt>
      <trkpt lat="44.24367" lon="5.62169">
        <ele>805</ele>
        <time>2018-05-16T20:35:47Z</time>
      </trkpt>
      <trkpt lat="44.24305" lon="5.62065">
        <ele>815</ele>
        <time>2018-05-16T20:36:47Z</time>
      </trkpt>
      <trkpt lat="44.24278" lon="5.62007">
        <ele>827</ele>
        <time>2018-05-16T20:37:47Z</time>
      </trkpt>
      <trkpt lat="44.24215" lon="5.62">
        <ele>817</ele>
        <time>2018-05-16T20:38:47Z</time>
      </trkpt>
      <trkpt lat="44.24136" lon="5.61846">
        <ele>833</ele>
        <time>2018-05-16T20:39:47Z</time>
      </trkpt>
      <trkpt lat="44.24045" lon="5.61671">
        <ele>837</ele>
        <time>2018-05-16T20:40:47Z</time>
      </trkpt>
      <trkpt lat="44.23962" lon="5.61573">
        <ele>838</ele>
        <time>2018-05-16T20:41:47Z</time>
      </trkpt>
      <trkpt lat="44.23926" lon="5.61655">
        <ele>835</ele>
        <time>2018-05-16T20:42:47Z</time>
      </trkpt>
      <trkpt lat="44.23852" lon="5.61716">
        <ele>836</ele>
        <time>2018-05-16T20:43:47Z</time>
      </trkpt>
      <trkpt lat="44.23782" lon="5.61966">
        <ele>872</ele>
        <time>2018-05-16T20:44:47Z</time>
      </trkpt>
      <trkpt lat="44.23757" lon="5.62184">
        <ele>869</ele>
        <time>2018-05-16T20:45:47Z</time>
      </trkpt>
      <trkpt lat="44.23758" lon="5.62321">
        <ele>854</ele>
        <time>2018-05-16T20:46:47Z</time>
      </trkpt>
      <trkpt lat="44.23731" lon="5.62536">
        <ele>832</ele>
        <time>2018-05-16T20:47:47Z</time>
      </trkpt>
      <trkpt lat="44.23718" lon="5.62669">
        <ele>816</ele>
        <time>2018-05-16T20:48:47Z</time>
      </trkpt>
      <trkpt lat="44.23718" lon="5.62813">
        <ele>790</ele>
        <time>2018-05-16T20:49:47Z</time>
      </trkpt>
      <trkpt lat="44.23752" lon="5.62894">
        <ele>768</ele>
        <time>2018-05-16T20:50:47Z</time>
      </trkpt>
      <trkpt lat="44.23759" lon="5.62885">
        <ele>769</ele>
        <time>2018-05-16T20:51:47Z</time>
      </trkpt>
      <trkpt lat="44.23754" lon="5.62975">
        <ele>754</ele>
        <time>2018-05-16T20:52:47Z</time>
      </trkpt>
      <trkpt lat="44.23615" lon="5.63105">
        <ele>725</ele>
        <time>2018-05-16T20:53:47Z</time>
      </trkpt>
      <trkpt lat="44.23514" lon="5.63155">
        <ele>715</ele>
        <time>2018-05-16T20:54:47Z</time>
      </trkpt>
      <trkpt lat="44.23348" lon="5.63133">
        <ele>715</ele>
        <time>2018-05-16T20:55:47Z</time>
      </trkpt>
      <trkpt lat="44.23355" lon="5.63127">
        <ele>716</ele>
        <time>2018-05-16T20:56:47Z</time>
      </trkpt>
      <trkpt lat="44.23364" lon="5.63293">
        <ele>708</ele>
        <time>2018-05-16T20:57:47Z</time>
      </trkpt>
      <trkpt lat="44.23178" lon="5.6363">
        <ele>718</ele>
        <time>2018-05-16T20:58:47Z</time>
      </trkpt>
      <trkpt lat="44.23128" lon="5.63715">
        <ele>721</ele>
        <time>2018-05-16T20:59:47Z</time>
      </trkpt>
      <trkpt lat="44.23005" lon="5.63773">
        <ele>723</ele>
        <time>2018-05-16T21:00:47Z</time>
      </trkpt>
      <trkpt lat="44.22947" lon="5.63851">
        <ele>723</ele>
        <time>2018-05-16T21:01:47Z</time>
      </trkpt>
      <trkpt lat="44.22805" lon="5.6399">
        <ele>726</ele>
        <time>2018-05-16T21:02:47Z</time>
      </trkpt>
      <trkpt lat="44.22705" lon="5.64112">
        <ele>729</ele>
        <time>2018-05-16T21:03:47Z</time>
      </trkpt>
      <trkpt lat="44.22562" lon="5.64213">
        <ele>732</ele>
        <time>2018-05-16T21:04:47Z</time>
      </trkpt>
      <trkpt lat="44.22415" lon="5.64246">
        <ele>740</ele>
        <time>2018-05-16T21:05:47Z</time>
      </trkpt>
      <trkpt lat="44.22329" lon="5.64269">
        <ele>740</ele>
        <time>2018-05-16T21:06:47Z</time>
      </trkpt>
      <trkpt lat="44.22269" lon="5.64318">
        <ele>743</ele>
        <time>2018-05-16T21:07:47Z</time>
      </trkpt>
      <trkpt lat="44.22065" lon="5.64291">
        <ele>762</ele>
        <time>2018-05-16T21:08:47Z</time>
      </trkpt>
      <trkpt lat="44.22026" lon="5.64301">
        <ele>769</ele>
        <time>2018-05-16T21:09:47Z</time>
      </trkpt>
      <trkpt lat="44.21911" lon="5.64238">
        <ele>782</ele>
        <time>2018-05-16T21:10:47Z</time>
      </trkpt>
      <trkpt lat="44.21813" lon="5.64298">
        <ele>796</ele>
        <time>2018-05-16T21:11:47Z</time>
      </trkpt>
      <trkpt lat="44.21642" lon="5.64357">
        <ele>823</ele>
        <time>2018-05-16T21:12:47Z</time>
      </trkpt>
      <trkpt lat="44.21595" lon="5.6436">
        <ele>836</ele>
        <time>2018-05-16T21:13:47Z</time>
      </trkpt>
      <trkpt lat="44.21542" lon="5.64251">
        <ele>842</ele>
        <time>2018-05-16T21:14:47Z</time>
      </trkpt>
      <trkpt lat="44.21484" lon="5.64376">
        <ele>865</ele>
        <time>2018-05-16T21:15:47Z</time>
      </trkpt>
      <trkpt lat="44.21493" lon="5.64376">
        <ele>864</ele>
        <time>2018-05-16T21:16:47Z</time>
      </trkpt>
      <trkpt lat="44.21478" lon="5.64416">
        <ele>871</ele>
        <time>2018-05-16T21:17:47Z</time>
      </trkpt>
      <trkpt lat="44.21327" lon="5.64426">
        <ele>891</ele>
        <time>2018-05-16T21:18:47Z</time>
      </trkpt>
      <trkpt lat="44.21271" lon="5.64504">
        <ele>905</ele>
        <time>2018-05-16T21:19:47Z</time>
      </trkpt>
      <trkpt lat="44.21247" lon="5.64537">
        <ele>911</ele>
        <time>2018-05-16T21:20:47Z</time>
      </trkpt>
      <trkpt lat="44.21174" lon="5.64498">
        <ele>916</ele>
        <time>2018-05-16T21:21:47Z</time>
      </trkpt>
      <trkpt lat="44.21115" lon="5.6452">
        <ele>933</ele>
        <time>2018-05-16T21:22:47Z</time>
      </trkpt>
      <trkpt lat="44.21129" lon="5.64521">
        <ele>930</ele>
        <time>2018-05-16T21:23:47Z</time>
      </trkpt>
      <trkpt lat="44.21034" lon="5.64521">
        <ele>947</ele>
        <time>2018-05-16T21:24:47Z</time>
      </trkpt>
      <trkpt lat="44.20948" lon="5.64541">
        <ele>964</ele>
        <time>2018-05-16T21:25:47Z</time>
      </trkpt>
      <trkpt lat="44.20909" lon="5.64552">
        <ele>973</ele>
        <time>2018-05-16T21:26:47Z</time>
      </trkpt>
      <trkpt lat="44.20915" lon="5.64449">
        <ele>985</ele>
        <time>2018-05-16T21:27:47Z</time>
      </trkpt>
      <trkpt lat="44.20825" lon="5.64512">
        <ele>1010</ele>
        <time>2018-05-16T21:28:47Z</time>
      </trkpt>
      <trkpt lat="44.20758" lon="5.6458">
        <ele>1023</ele>
        <time>2018-05-16T21:29:47Z</time>
      </trkpt>
      <trkpt lat="44.20765" lon="5.64578">
        <ele>1021</ele>
        <time>2018-05-16T21:30:47Z</time>
      </trkpt>
      <trkpt lat="44.20713" lon="5.64709">
        <ele>1035</ele>
        <time>2018-05-16T21:31:47Z</time>
      </trkpt>
      <trkpt lat="44.20577" lon="5.64967">
        <ele>1069</ele>
        <time>2018-05-16T21:32:47Z</time>
      </trkpt>
      <trkpt lat="44.20507" lon="5.64982">
        <ele>1070</ele>
        <time>2018-05-16T21:33:47Z</time>
      </trkpt>
      <trkpt lat="44.20442" lon="5.6505">
        <ele>1061</ele>
        <time>2018-05-16T21:34:47Z</time>
      </trkpt>
      <trkpt lat="44.20404" lon="5.6526">
        <ele>1034</ele>
        <time>2018-05-16T21:35:47Z</time>
      </trkpt>
      <trkpt lat="44.20381" lon="5.65299">
        <ele>1030</ele>
        <time>2018-05-16T21:36:47Z</time>
      </trkpt>
      <trkpt lat="44.20365" lon="5.65292">
        <ele>1028</ele>
        <time>2018-05-16T21:37:47Z</time>
      </trkpt>
      <trkpt lat="44.20294" lon="5.65244">
        <ele>1030</ele>
        <time>2018-05-16T21:38:47Z</time>
      </trkpt>
      <trkpt lat="44.20269" lon="5.65271">
        <ele>1028</ele>
        <time>2018-05-16T21:39:47Z</time>
      </trkpt>
      <trkpt lat="44.20221" lon="5.65206">
        <ele>1035</ele>
        <time>2018-05-16T21:40:47Z</time>
      </trkpt>
      <trkpt lat="44.20139" lon="5.65173">
        <ele>1045</ele>
        <time>2018-05-16T21:41:47Z</time>
      </trkpt>
      <trkpt lat="44.20054" lon="5.65171">
        <ele>1059</ele>
        <time>2018-05-16T21:42:47Z</time>
      </trkpt>
      <trkpt lat="44.20027" lon="5.65163">
        <ele>1064</ele>
        <time>2018-05-16T21:43:47Z</time>
      </trkpt>
      <trkpt lat="44.19929" lon="5.65201">
        <ele>1080</ele>
        <time>2018-05-16T21:44:47Z</time>
      </trkpt>
      <trkpt lat="44.19911" lon="5.65187">
        <ele>1085</ele>
        <time>2018-05-16T21:45:47Z</time>
      </trkpt>
      <trkpt lat="44.19848" lon="5.6519">
        <ele>1093</ele>
        <time>2018-05-16T21:46:47Z</time>
      </trkpt>
      <trkpt lat="44.19854" lon="5.65381">
        <ele>1075</ele>
        <time>2018-05-16T21:47:47Z</time>
      </trkpt>
      <trkpt lat="44.19805" lon="5.65591">
        <ele>1062</ele>
        <time>2018-05-16T21:48:47Z</time>
      </trkpt>
      <trkpt lat="44.1979" lon="5.6569">
        <ele>1060</ele>
        <time>2018-05-16T21:49:47Z</time>
      </trkpt>
      <trkpt lat="44.19732" lon="5.65921">
        <ele>1056</ele>
        <time>2018-05-16T21:50:47Z</time>
      </trkpt>
      <trkpt lat="44.19741" lon="5.65922">
        <ele>1053</ele>
        <time>2018-05-16T21:51:47Z</time>
      </trkpt>
      <trkpt lat="44.1972" lon="5.66024">
        <ele>1051</ele>
        <time>2018-05-16T21:52:47Z</time>
      </trkpt>
      <trkpt lat="44.1977" lon="5.66064">
        <ele>1041</ele>
        <time>2018-05-16T21:53:47Z</time>
      </trkpt>
      <trkpt lat="44.19902" lon="5.66106">
        <ele>1023</ele>
        <time>2018-05-16T21:54:47Z</time>
      </trkpt>
      <trkpt lat="44.19923" lon="5.66154">
        <ele>1024</ele>
        <time>2018-05-16T21:55:47Z</time>
      </trkpt>
      <trkpt lat="44.19913" lon="5.66235">
        <ele>1031</ele>
        <time>2018-05-16T21:56:47Z</time>
      </trkpt>
      <trkpt lat="44.19883" lon="5.66346">
        <ele>1048</ele>
        <time>2018-05-16T21:57:47Z</time>
      </trkpt>
      <trkpt lat="44.19876" lon="5.66349">
        <ele>1050</ele>
        <time>2018-05-16T21:58:47Z</time>
      </trkpt>
      <trkpt lat="44.19862" lon="5.66439">
        <ele>1059</ele>
        <time>2018-05-16T21:59:47Z</time>
      </trkpt>
      <trkpt lat="44.19839" lon="5.66459">
        <ele>1063</ele>
        <time>2018-05-16T22:00:47Z</time>
      </trkpt>
      <trkpt lat="44.198" lon="5.66469">
        <ele>1069</ele>
        <time>2018-05-16T22:01:47Z</time>
      </trkpt>
      <trkpt lat="44.19833" lon="5.6659">
        <ele>1073</ele>
        <time>2018-05-16T22:02:47Z</time>
      </trkpt>
      <trkpt lat="44.19813" lon="5.66708">
        <ele>1088</ele>
        <time>2018-05-16T22:03:47Z</time>
      </trkpt>
      <trkpt lat="44.19782" lon="5.66769">
        <ele>1100</ele>
        <time>2018-05-16T22:04:47Z</time>
      </trkpt>
      <trkpt lat="44.19665" lon="5.66793">
        <ele>1129</ele>
        <time>2018-05-16T22:05:47Z</time>
      </trkpt>
      <trkpt lat="44.19629" lon="5.66941">
        <ele>1141</ele>
        <time>2018-05-16T22:06:47Z</time>
      </trkpt>
      <trkpt lat="44.19602" lon="5.67068">
        <ele>1150</ele>
        <time>2018-05-16T22:07:47Z</time>
      </trkpt>
      <trkpt lat="44.1959" lon="5.67086">
        <ele>1152</ele>
        <time>2018-05-16T22:08:47Z</time>
      </trkpt>
      <trkpt lat="44.19542" lon="5.67264">
        <ele>1185</ele>
        <time>2018-05-16T22:09:47Z</time>
      </trkpt>
      <trkpt lat="44.19551" lon="5.67352">
        <ele>1195</ele>
        <time>2018-05-16T22:10:47Z</time>
      </trkpt>
      <trkpt lat="44.19558" lon="5.67346">
        <ele>1192</ele>
        <time>2018-05-16T22:11:47Z</time>
      </trkpt>
      <trkpt lat="44.1955" lon="5.67512">
        <ele>1219</ele>
        <time>2018-05-16T22:12:47Z</time>
      </trkpt>
      <trkpt lat="44.19643" lon="5.6773">
        <ele>1241</ele>
        <time>2018-05-16T22:13:47Z</time>
      </trkpt>
      <trkpt lat="44.19737" lon="5.67889">
        <ele>1243</ele>
        <time>2018-05-16T22:14:47Z</time>
      </trkpt>
      <trkpt lat="44.19663" lon="5.68172">
        <ele>1309</ele>
        <time>2018-05-16T22:15:47Z</time>
      </trkpt>
      <trkpt lat="44.19672" lon="5.68251">
        <ele>1314</ele>
        <time>2018-05-16T22:16:47Z</time>
      </trkpt>
      <trkpt lat="44.19681" lon="5.68245">
        <ele>1312</ele>
        <time>2018-05-16T22:17:47Z</time>
      </trkpt>
      <trkpt lat="44.1978" lon="5.68304">
        <ele>1305</ele>
        <time>2018-05-16T22:18:47Z</time>
      </trkpt>
      <trkpt lat="44.19845" lon="5.68339">
        <ele>1300</ele>
        <time>2018-05-16T22:19:47Z</time>
      </trkpt>
      <trkpt lat="44.19873" lon="5.68303">
        <ele>1288</ele>
        <time>2018-05-16T22:20:47Z</time>
      </trkpt>
      <trkpt lat="44.199" lon="5.68355">
        <ele>1291</ele>
        <time>2018-05-16T22:21:47Z</time>
      </trkpt>
      <trkpt lat="44.19959" lon="5.68365">
        <ele>1276</ele>
        <time>2018-05-16T22:22:47Z</time>
      </trkpt>
      <trkpt lat="44.19965" lon="5.68359">
        <ele>1274</ele>
        <time>2018-05-16T22:23:47Z</time>
      </trkpt>
      <trkpt lat="44.19974" lon="5.68513">
        <ele>1274</ele>
        <time>2018-05-16T22:24:47Z</time>
      </trkpt>
      <trkpt lat="44.19949" lon="5.68836">
        <ele>1287</ele>
        <time>2018-05-16T22:25:47Z</time>
      </trkpt>
      <trkpt lat="44.19955" lon="5.69056">
        <ele>1284</ele>
        <time>2018-05-16T22:26:47Z</time>
      </trkpt>
      <trkpt lat="44.20036" lon="5.69198">
        <ele>1263</ele>
        <time>2018-05-16T22:27:47Z</time>
      </trkpt>
      <trkpt lat="44.20138" lon="5.69414">
        <ele>1264</ele>
        <time>2018-05-16T22:28:47Z</time>
      </trkpt>
      <trkpt lat="44.20213" lon="5.69675">
        <ele>1272</ele>
        <time>2018-05-16T22:29:47Z</time>
      </trkpt>
      <trkpt lat="44.20251" lon="5.69986">
        <ele>1224</ele>
        <time>2018-05-16T22:30:47Z</time>
      </trkpt>
      <trkpt lat="44.20237" lon="5.70058">
        <ele>1217</ele>
        <time>2018-05-16T22:31:47Z</time>
      </trkpt>
      <trkpt lat="44.20258" lon="5.70184">
        <ele>1208</ele>
        <time>2018-05-16T22:32:47Z</time>
      </trkpt>
      <trkpt lat="44.20312" lon="5.7025">
        <ele>1201</ele>
        <time>2018-05-16T22:33:47Z</time>
      </trkpt>
      <trkpt lat="44.20341" lon="5.70348">
        <ele>1200</ele>
        <time>2018-05-16T22:34:47Z</time>
      </trkpt>
      <trkpt lat="44.20417" lon="5.7029">
        <ele>1178</ele>
        <time>2018-05-16T22:35:47Z</time>
      </trkpt>
      <trkpt lat="44.20513" lon="5.70249">
        <ele>1146</ele>
        <time>2018-05-16T22:36:47Z</time>
      </trkpt>
      <trkpt lat="44.20542" lon="5.70235">
        <ele>1137</ele>
        <time>2018-05-16T22:37:47Z</time>
      </trkpt>
      <trkpt lat="44.20649" lon="5.7021">
        <ele>1110</ele>
        <time>2018-05-16T22:38:47Z</time>
      </trkpt>
      <trkpt lat="44.20682" lon="5.70222">
        <ele>1108</ele>
        <time>2018-05-16T22:39:47Z</time>
      </trkpt>
      <trkpt lat="44.20771" lon="5.70202">
        <ele>1084</ele>
        <time>2018-05-16T22:40:47Z</time>
      </trkpt>
      <trkpt lat="44.20783" lon="5.70243">
        <ele>1086</ele>
        <time>2018-05-16T22:41:47Z</time>
      </trkpt>
      <trkpt lat="44.20792" lon="5.70244">
        <ele>1082</ele>
        <time>2018-05-16T22:42:47Z</time>
      </trkpt>
      <trkpt lat="44.20801" lon="5.70238">
        <ele>1078</ele>
        <time>2018-05-16T22:43:47Z</time>
      </trkpt>
      <trkpt lat="44.20808" lon="5.70232">
        <ele>1075</ele>
        <time>2018-05-16T22:44:47Z</time>
      </trkpt>
      <trkpt lat="44.20851" lon="5.70294">
        <ele>1075</ele>
        <time>2018-05-16T22:45:47Z</time>
      </trkpt>
      <trkpt lat="44.20935" lon="5.70284">
        <ele>1054</ele>
        <time>2018-05-16T22:46:47Z</time>
      </trkpt>
      <trkpt lat="44.20955" lon="5.70263">
        <ele>1045</ele>
        <time>2018-05-16T22:47:47Z</time>
      </trkpt>
      <trkpt lat="44.20937" lon="5.70218">
        <ele>1040</ele>
        <time>2018-05-16T22:48:47Z</time>
      </trkpt>
      <trkpt lat="44.20977" lon="5.70217">
        <ele>1032</ele>
        <time>2018-05-16T22:49:47Z</time>
      </trkpt>
      <trkpt lat="44.20996" lon="5.70262">
        <ele>1037</ele>
        <time>2018-05-16T22:50:47Z</time>
      </trkpt>
      <trkpt lat="44.21043" lon="5.70265">
        <ele>1033</ele>
        <time>2018-05-16T22:51:47Z</time>
      </trkpt>
      <trkpt lat="44.21159" lon="5.70231">
        <ele>1020</ele>
        <time>2018-05-16T22:52:47Z</time>
      </trkpt>
      <trkpt lat="44.21196" lon="5.70183">
        <ele>1008</ele>
        <time>2018-05-16T22:53:47Z</time>
      </trkpt>
      <trkpt lat="44.21217" lon="5.70163">
        <ele>1004</ele>
        <time>2018-05-16T22:54:47Z</time>
      </trkpt>
      <trkpt lat="44.21244" lon="5.70177">
        <ele>1004</ele>
        <time>2018-05-16T22:55:47Z</time>
      </trkpt>
      <trkpt lat="44.21256" lon="5.70134">
        <ele>998</ele>
        <time>2018-05-16T22:56:47Z</time>
      </trkpt>
      <trkpt lat="44.21219" lon="5.70116">
        <ele>995</ele>
        <time>2018-05-16T22:57:47Z</time>
      </trkpt>
      <trkpt lat="44.21185" lon="5.70114">
        <ele>994</ele>
        <time>2018-05-16T22:58:47Z</time>
      </trkpt>
      <trkpt lat="44.21188" lon="5.70011">
        <ele>976</ele>
        <time>2018-05-16T22:59:47Z</time>
      </trkpt>
      <trkpt lat="44.21215" lon="5.69959">
        <ele>969</ele>
        <time>2018-05-16T23:00:47Z</time>
      </trkpt>
      <trkpt lat="44.21243" lon="5.69917">
        <ele>964</ele>
        <time>2018-05-16T23:01:47Z</time>
      </trkpt>
      <trkpt lat="44.21295" lon="5.69974">
        <ele>970</ele>
        <time>2018-05-16T23:02:47Z</time>
      </trkpt>
      <trkpt lat="44.21378" lon="5.70047">
        <ele>969</ele>
        <time>2018-05-16T23:03:47Z</time>
      </trkpt>
      <trkpt lat="44.21373" lon="5.70131">
        <ele>981</ele>
        <time>2018-05-16T23:04:47Z</time>
      </trkpt>
      <trkpt lat="44.21417" lon="5.70175">
        <ele>981</ele>
        <time>2018-05-16T23:05:47Z</time>
      </trkpt>
      <trkpt lat="44.21468" lon="5.70212">
        <ele>987</ele>
        <time>2018-05-16T23:06:47Z</time>
      </trkpt>
      <trkpt lat="44.21536" lon="5.70248">
        <ele>989</ele>
        <time>2018-05-16T23:07:47Z</time>
      </trkpt>
      <trkpt lat="44.21622" lon="5.70393">
        <ele>998</ele>
        <time>2018-05-16T23:08:47Z</time>
      </trkpt>
      <trkpt lat="44.21647" lon="5.70457">
        <ele>1008</ele>
        <time>2018-05-16T23:09:47Z</time>
      </trkpt>
      <trkpt lat="44.21681" lon="5.70516">
        <ele>1015</ele>
        <time>2018-05-16T23:10:47Z</time>
      </trkpt>
      <trkpt lat="44.21804" lon="5.70542">
        <ele>999</ele>
        <time>2018-05-16T23:11:47Z</time>
      </trkpt>
      <trkpt lat="44.21837" lon="5.70707">
        <ele>998</ele>
        <time>2018-05-16T23:12:47Z</time>
      </trkpt>
      <trkpt lat="44.21812" lon="5.70805">
        <ele>999</ele>
        <time>2018-05-16T23:13:47Z</time>
      </trkpt>
      <trkpt lat="44.21709" lon="5.7099">
        <ele>1008</ele>
        <time>2018-05-16T23:14:47Z</time>
      </trkpt>
      <trkpt lat="44.21609" lon="5.71181">
        <ele>1013</ele>
        <time>2018-05-16T23:15:47Z</time>
      </trkpt>
      <trkpt lat="44.21533" lon="5.71317">
        <ele>1011</ele>
        <time>2018-05-16T23:16:47Z</time>
      </trkpt>
      <trkpt lat="44.21459" lon="5.71382">
        <ele>1025</ele>
        <time>2018-05-16T23:17:47Z</time>
      </trkpt>
      <trkpt lat="44.21457" lon="5.71572">
        <ele>1018</ele>
        <time>2018-05-16T23:18:47Z</time>
      </trkpt>
      <trkpt lat="44.21415" lon="5.71639">
        <ele>1025</ele>
        <time>2018-05-16T23:19:47Z</time>
      </trkpt>
      <trkpt lat="44.21307" lon="5.71767">
        <ele>1037</ele>
        <time>2018-05-16T23:20:47Z</time>
      </trkpt>
      <trkpt lat="44.21308" lon="5.72039">
        <ele>1038</ele>
        <time>2018-05-16T23:21:47Z</time>
      </trkpt>
      <trkpt lat="44.21253" lon="5.72145">
        <ele>1055</ele>
        <time>2018-05-16T23:22:47Z</time>
      </trkpt>
      <trkpt lat="44.21253" lon="5.72342">
        <ele>1055</ele>
        <time>2018-05-16T23:23:47Z</time>
      </trkpt>
      <trkpt lat="44.21252" lon="5.72452">
        <ele>1064</ele>
        <time>2018-05-16T23:24:47Z</time>
      </trkpt>
      <trkpt lat="44.21225" lon="5.72666">
        <ele>1080</ele>
        <time>2018-05-16T23:25:47Z</time>
      </trkpt>
      <trkpt lat="44.21174" lon="5.72804">
        <ele>1099</ele>
        <time>2018-05-16T23:26:47Z</time>
      </trkpt>
      <trkpt lat="44.21164" lon="5.7306">
        <ele>1106</ele>
        <time>2018-05-16T23:27:47Z</time>
      </trkpt>
      <trkpt lat="44.21131" lon="5.73155">
        <ele>1111</ele>
        <time>2018-05-16T23:28:47Z</time>
      </trkpt>
      <trkpt lat="44.2109" lon="5.73183">
        <ele>1121</ele>
        <time>2018-05-16T23:29:47Z</time>
      </trkpt>
      <trkpt lat="44.21082" lon="5.73283">
        <ele>1129</ele>
        <time>2018-05-16T23:30:47Z</time>
      </trkpt>
      <trkpt lat="44.21127" lon="5.73442">
        <ele>1135</ele>
        <time>2018-05-16T23:31:47Z</time>
      </trkpt>
      <trkpt lat="44.21123" lon="5.73561">
        <ele>1139</ele>
        <time>2018-05-16T23:32:47Z</time>
      </trkpt>
      <trkpt lat="44.2109" lon="5.73621">
        <ele>1148</ele>
        <time>2018-05-16T23:33:47Z</time>
      </trkpt>
      <trkpt lat="44.21067" lon="5.73717">
        <ele>1170</ele>
        <time>2018-05-16T23:34:47Z</time>
      </trkpt>
      <trkpt lat="44.21139" lon="5.73768">
        <ele>1154</ele>
        <time>2018-05-16T23:35:47Z</time>
      </trkpt>
      <trkpt lat="44.21142" lon="5.73975">
        <ele>1161</ele>
        <time>2018-05-16T23:36:47Z</time>
      </trkpt>
      <trkpt lat="44.21074" lon="5.74002">
        <ele>1187</ele>
        <time>2018-05-16T23:37:47Z</time>
      </trkpt>
      <trkpt lat="44.21018" lon="5.74124">
        <ele>1204</ele>
        <time>2018-05-16T23:38:47Z</time>
      </trkpt>
      <trkpt lat="44.21023" lon="5.74183">
        <ele>1202</ele>
        <time>2018-05-16T23:39:47Z</time>
      </trkpt>
      <trkpt lat="44.21119" lon="5.74336">
        <ele>1212</ele>
        <time>2018-05-16T23:40:47Z</time>
      </trkpt>
      <trkpt lat="44.21206" lon="5.7452">
        <ele>1220</ele>
        <time>2018-05-16T23:41:47Z</time>
      </trkpt>
      <trkpt lat="44.21226" lon="5.7459">
        <ele>1227</ele>
        <time>2018-05-16T23:42:47Z</time>
      </trkpt>
      <trkpt lat="44.21168" lon="5.74586">
        <ele>1254</ele>
        <time>2018-05-16T23:43:47Z</time>
      </trkpt>
      <trkpt lat="44.21227" lon="5.74837">
        <ele>1275</ele>
        <time>2018-05-16T23:44:47Z</time>
      </trkpt>
      <trkpt lat="44.21231" lon="5.74872">
        <ele>1279</ele>
        <time>2018-05-16T23:45:47Z</time>
      </trkpt>
      <trkpt lat="44.21265" lon="5.75152">
        <ele>1289</ele>
        <time>2018-05-16T23:46:47Z</time>
      </trkpt>
      <trkpt lat="44.21312" lon="5.7523">
        <ele>1289</ele>
        <time>2018-05-16T23:47:47Z</time>
      </trkpt>
      <trkpt lat="44.21298" lon="5.75401">
        <ele>1277</ele>
        <time>2018-05-16T23:48:47Z</time>
      </trkpt>
      <trkpt lat="44.21285" lon="5.75501">
        <ele>1267</ele>
        <time>2018-05-16T23:49:47Z</time>
      </trkpt>
      <trkpt lat="44.21253" lon="5.75593">
        <ele>1256</ele>
        <time>2018-05-16T23:50:47Z</time>
      </trkpt>
      <trkpt lat="44.21254" lon="5.75636">
        <ele>1252</ele>
        <time>2018-05-16T23:51:47Z</time>
      </trkpt>
      <trkpt lat="44.21292" lon="5.75639">
        <ele>1259</ele>
        <time>2018-05-16T23:52:47Z</time>
      </trkpt>
      <trkpt lat="44.21299" lon="5.7572">
        <ele>1258</ele>
        <time>2018-05-16T23:53:47Z</time>
      </trkpt>
      <trkpt lat="44.21257" lon="5.75821">
        <ele>1246</ele>
        <time>2018-05-16T23:54:47Z</time>
      </trkpt>
      <trkpt lat="44.2127" lon="5.76141">
        <ele>1234</ele>
        <time>2018-05-16T23:55:47Z</time>
      </trkpt>
      <trkpt lat="44.2127" lon="5.76219">
        <ele>1231</ele>
        <time>2018-05-16T23:56:47Z</time>
      </trkpt>
      <trkpt lat="44.21323" lon="5.76448">
        <ele>1217</ele>
        <time>2018-05-16T23:57:47Z</time>
      </trkpt>
      <trkpt lat="44.21342" lon="5.76493">
        <ele>1215</ele>
        <time>2018-05-16T23:58:47Z</time>
      </trkpt>
      <trkpt lat="44.21321" lon="5.76532">
        <ele>1216</ele>
        <time>2018-05-16T23:59:47Z</time>
      </trkpt>
      <trkpt lat="44.21315" lon="5.76579">
        <ele>1218</ele>
        <time>2018-05-17T00:00:47Z</time>
      </trkpt>
      <trkpt lat="44.21343" lon="5.77037">
        <ele>1201</ele>
        <time>2018-05-17T00:01:47Z</time>
      </trkpt>
      <trkpt lat="44.21356" lon="5.77122">
        <ele>1198</ele>
        <time>2018-05-17T00:02:47Z</time>
      </trkpt>
      <trkpt lat="44.21414" lon="5.77223">
        <ele>1187</ele>
        <time>2018-05-17T00:03:47Z</time>
      </trkpt>
      <trkpt lat="44.21448" lon="5.77422">
        <ele>1189</ele>
        <time>2018-05-17T00:04:47Z</time>
      </trkpt>
      <trkpt lat="44.21445" lon="5.77519">
        <ele>1186</ele>
        <time>2018-05-17T00:05:47Z</time>
      </trkpt>
      <trkpt lat="44.21554" lon="5.77632">
        <ele>1202</ele>
        <time>2018-05-17T00:06:47Z</time>
      </trkpt>
      <trkpt lat="44.21557" lon="5.7776">
        <ele>1194</ele>
        <time>2018-05-17T00:07:47Z</time>
      </trkpt>
      <trkpt lat="44.21637" lon="5.77787">
        <ele>1206</ele>
        <time>2018-05-17T00:08:47Z</time>
      </trkpt>
      <trkpt lat="44.2167" lon="5.77936">
        <ele>1213</ele>
        <time>2018-05-17T00:09:47Z</time>
      </trkpt>
      <trkpt lat="44.21754" lon="5.78054">
        <ele>1220</ele>
        <time>2018-05-17T00:10:47Z</time>
      </trkpt>
      <trkpt lat="44.21788" lon="5.77981">
        <ele>1220</ele>
        <time>2018-05-17T00:11:47Z</time>
      </trkpt>
      <trkpt lat="44.21882" lon="5.77918">
        <ele>1216</ele>
        <time>2018-05-17T00:12:47Z</time>
      </trkpt>
      <trkpt lat="44.21972" lon="5.77873">
        <ele>1206</ele>
        <time>2018-05-17T00:13:47Z</time>
      </trkpt>
      <trkpt lat="44.22132" lon="5.77645">
        <ele>1184</ele>
        <time>2018-05-17T00:14:47Z</time>
      </trkpt>
      <trkpt lat="44.22168" lon="5.77644">
        <ele>1176</ele>
        <time>2018-05-17T00:15:47Z</time>
      </trkpt>
      <trkpt lat="44.222" lon="5.77624">
        <ele>1171</ele>
        <time>2018-05-17T00:16:47Z</time>
      </trkpt>
      <trkpt lat="44.22193" lon="5.77558">
        <ele>1176</ele>
        <time>2018-05-17T00:17:47Z</time>
      </trkpt>
      <trkpt lat="44.22201" lon="5.77509">
        <ele>1176</ele>
        <time>2018-05-17T00:18:47Z</time>
      </trkpt>
      <trkpt lat="44.22223" lon="5.77463">
        <ele>1175</ele>
        <time>2018-05-17T00:19:47Z</time>
      </trkpt>
      <trkpt lat="44.22303" lon="5.77415">
        <ele>1166</ele>
        <time>2018-05-17T00:20:47Z</time>
      </trkpt>
      <trkpt lat="44.22484" lon="5.77401">
        <ele>1152</ele>
        <time>2018-05-17T00:21:47Z</time>
      </trkpt>
      <trkpt lat="44.22485" lon="5.77438">
        <ele>1148</ele>
        <time>2018-05-17T00:22:47Z</time>
      </trkpt>
      <trkpt lat="44.22467" lon="5.7749">
        <ele>1144</ele>
        <time>2018-05-17T00:23:47Z</time>
      </trkpt>
      <trkpt lat="44.22434" lon="5.77554">
        <ele>1136</ele>
        <time>2018-05-17T00:24:47Z</time>
      </trkpt>
      <trkpt lat="44.22454" lon="5.77555">
        <ele>1135</ele>
        <time>2018-05-17T00:25:47Z</time>
      </trkpt>
      <trkpt lat="44.22499" lon="5.77549">
        <ele>1136</ele>
        <time>2018-05-17T00:26:47Z</time>
      </trkpt>
      <trkpt lat="44.22563" lon="5.77468">
        <ele>1132</ele>
        <time>2018-05-17T00:27:47Z</time>
      </trkpt>
      <trkpt lat="44.22594" lon="5.77382">
        <ele>1136</ele>
        <time>2018-05-17T00:28:47Z</time>
      </trkpt>
      <trkpt lat="44.22625" lon="5.7735">
        <ele>1141</ele>
        <time>2018-05-17T00:29:47Z</time>
      </trkpt>
      <trkpt lat="44.22638" lon="5.77347">
        <ele>1141</ele>
        <time>2018-05-17T00:30:47Z</time>
      </trkpt>
      <trkpt lat="44.22647" lon="5.77345">
        <ele>1142</ele>
        <time>2018-05-17T00:31:47Z</time>
      </trkpt>
      <trkpt lat="44.22663" lon="5.77436">
        <ele>1129</ele>
        <time>2018-05-17T00:32:47Z</time>
      </trkpt>
      <trkpt lat="44.22677" lon="5.77481">
        <ele>1124</ele>
        <time>2018-05-17T00:33:47Z</time>
      </trkpt>
      <trkpt lat="44.22703" lon="5.77508">
        <ele>1122</ele>
        <time>2018-05-17T00:34:47Z</time>
      </trkpt>
      <trkpt lat="44.2274" lon="5.77469">
        <ele>1131</ele>
        <time>2018-05-17T00:35:47Z</time>
      </trkpt>
      <trkpt lat="44.22795" lon="5.7746">
        <ele>1142</ele>
        <time>2018-05-17T00:36:47Z</time>
      </trkpt>
      <trkpt lat="44.22753" lon="5.77558">
        <ele>1127</ele>
        <time>2018-05-17T00:37:47Z</time>
      </trkpt>
      <trkpt lat="44.22714" lon="5.77662">
        <ele>1120</ele>
        <time>2018-05-17T00:38:47Z</time>
      </trkpt>
      <trkpt lat="44.22712" lon="5.77718">
        <ele>1120</ele>
        <time>2018-05-17T00:39:47Z</time>
      </trkpt>
      <trkpt lat="44.22712" lon="5.77853">
        <ele>1115</ele>
        <time>2018-05-17T00:40:47Z</time>
      </trkpt>
      <trkpt lat="44.22717" lon="5.77912">
        <ele>1113</ele>
        <time>2018-05-17T00:41:47Z</time>
      </trkpt>
      <trkpt lat="44.22769" lon="5.77928">
        <ele>1130</ele>
        <time>2018-05-17T00:42:47Z</time>
      </trkpt>
      <trkpt lat="44.22772" lon="5.77947">
        <ele>1132</ele>
        <time>2018-05-17T00:43:47Z</time>
      </trkpt>
      <trkpt lat="44.22744" lon="5.78058">
        <ele>1132</ele>
        <time>2018-05-17T00:44:47Z</time>
      </trkpt>
      <trkpt lat="44.22747" lon="5.78246">
        <ele>1127</ele>
        <time>2018-05-17T00:45:47Z</time>
      </trkpt>
      <trkpt lat="44.22889" lon="5.78449">
        <ele>1152</ele>
        <time>2018-05-17T00:46:47Z</time>
      </trkpt>
      <trkpt lat="44.22875" lon="5.78701">
        <ele>1145</ele>
        <time>2018-05-17T00:47:47Z</time>
      </trkpt>
      <trkpt lat="44.22888" lon="5.7884">
        <ele>1144</ele>
        <time>2018-05-17T00:48:47Z</time>
      </trkpt>
      <trkpt lat="44.22897" lon="5.78906">
        <ele>1148</ele>
        <time>2018-05-17T00:49:47Z</time>
      </trkpt>
      <trkpt lat="44.22875" lon="5.78967">
        <ele>1138</ele>
        <time>2018-05-17T00:50:47Z</time>
      </trkpt>
      <trkpt lat="44.22879" lon="5.79067">
        <ele>1145</ele>
        <time>2018-05-17T00:51:47Z</time>
      </trkpt>
      <trkpt lat="44.22816" lon="5.79136">
        <ele>1121</ele>
        <time>2018-05-17T00:52:47Z</time>
      </trkpt>
      <trkpt lat="44.22807" lon="5.79198">
        <ele>1119</ele>
        <time>2018-05-17T00:53:47Z</time>
      </trkpt>
      <trkpt lat="44.22895" lon="5.79397">
        <ele>1109</ele>
        <time>2018-05-17T00:54:47Z</time>
      </trkpt>
      <trkpt lat="44.2293" lon="5.79499">
        <ele>1103</ele>
        <time>2018-05-17T00:55:47Z</time>
      </trkpt>
      <trkpt lat="44.22953" lon="5.79573">
        <ele>1098</ele>
        <time>2018-05-17T00:56:47Z</time>
      </trkpt>
      <trkpt lat="44.23014" lon="5.79695">
        <ele>1105</ele>
        <time>2018-05-17T00:57:47Z</time>
      </trkpt>
      <trkpt lat="44.22999" lon="5.79751">
        <ele>1097</ele>
        <time>2018-05-17T00:58:47Z</time>
      </trkpt>
      <trkpt lat="44.22899" lon="5.79776">
        <ele>1068</ele>
        <time>2018-05-17T00:59:47Z</time>
      </trkpt>
      <trkpt lat="44.22898" lon="5.7981">
        <ele>1063</ele>
        <time>2018-05-17T01:00:47Z</time>
      </trkpt>
      <trkpt lat="44.22943" lon="5.7996">
        <ele>1060</ele>
        <time>2018-05-17T01:01:47Z</time>
      </trkpt>
      <trkpt lat="44.22971" lon="5.80071">
        <ele>1050</ele>
        <time>2018-05-17T01:02:47Z</time>
      </trkpt>
      <trkpt lat="44.22988" lon="5.8016">
        <ele>1050</ele>
        <time>2018-05-17T01:03:47Z</time>
      </trkpt>
      <trkpt lat="44.22979" lon="5.80228">
        <ele>1048</ele>
        <time>2018-05-17T01:04:47Z</time>
      </trkpt>
      <trkpt lat="44.22979" lon="5.80369">
        <ele>1043</ele>
        <time>2018-05-17T01:05:47Z</time>
      </trkpt>
      <trkpt lat="44.22968" lon="5.80381">
        <ele>1041</ele>
        <time>2018-05-17T01:06:47Z</time>
      </trkpt>
      <trkpt lat="44.22875" lon="5.80457">
        <ele>1031</ele>
        <time>2018-05-17T01:07:47Z</time>
      </trkpt>
      <trkpt lat="44.22872" lon="5.8071">
        <ele>1014</ele>
        <time>2018-05-17T01:08:47Z</time>
      </trkpt>
      <trkpt lat="44.22972" lon="5.80876">
        <ele>1011</ele>
        <time>2018-05-17T01:09:47Z</time>
      </trkpt>
      <trkpt lat="44.22957" lon="5.80868">
        <ele>1009</ele>
        <time>2018-05-17T01:10:47Z</time>
      </trkpt>
      <trkpt lat="44.22903" lon="5.80859">
        <ele>994</ele>
        <time>2018-05-17T01:11:47Z</time>
      </trkpt>
      <trkpt lat="44.22964" lon="5.80994">
        <ele>983</ele>
        <time>2018-05-17T01:12:47Z</time>
      </trkpt>
      <trkpt lat="44.22974" lon="5.81045">
        <ele>975</ele>
        <time>2018-05-17T01:13:47Z</time>
      </trkpt>
      <trkpt lat="44.22946" lon="5.81081">
        <ele>962</ele>
        <time>2018-05-17T01:14:47Z</time>
      </trkpt>
      <trkpt lat="44.22965" lon="5.81191">
        <ele>952</ele>
        <time>2018-05-17T01:15:47Z</time>
      </trkpt>
      <trkpt lat="44.22926" lon="5.81192">
        <ele>947</ele>
        <time>2018-05-17T01:16:47Z</time>
      </trkpt>
      <trkpt lat="44.22902" lon="5.81162">
        <ele>945</ele>
        <time>2018-05-17T01:17:47Z</time>
      </trkpt>
      <trkpt lat="44.22909" lon="5.81238">
        <ele>939</ele>
        <time>2018-05-17T01:18:47Z</time>
      </trkpt>
      <trkpt lat="44.2293" lon="5.81271">
        <ele>936</ele>
        <time>2018-05-17T01:19:47Z</time>
      </trkpt>
      <trkpt lat="44.22986" lon="5.81283">
        <ele>939</ele>
        <time>2018-05-17T01:20:47Z</time>
      </trkpt>
      <trkpt lat="44.23042" lon="5.81453">
        <ele>926</ele>
        <time>2018-05-17T01:21:47Z</time>
      </trkpt>
      <trkpt lat="44.23027" lon="5.81546">
        <ele>909</ele>
        <time>2018-05-17T01:22:47Z</time>
      </trkpt>
      <trkpt lat="44.22994" lon="5.8155">
        <ele>902</ele>
        <time>2018-05-17T01:23:47Z</time>
      </trkpt>
      <trkpt lat="44.22962" lon="5.81473">
        <ele>902</ele>
        <time>2018-05-17T01:24:47Z</time>
      </trkpt>
      <trkpt lat="44.22893" lon="5.81393">
        <ele>903</ele>
        <time>2018-05-17T01:25:47Z</time>
      </trkpt>
      <trkpt lat="44.22799" lon="5.81381">
        <ele>886</ele>
        <time>2018-05-17T01:26:47Z</time>
      </trkpt>
      <trkpt lat="44.22729" lon="5.81308">
        <ele>880</ele>
        <time>2018-05-17T01:27:47Z</time>
      </trkpt>
      <trkpt lat="44.2266" lon="5.81226">
        <ele>872</ele>
        <time>2018-05-17T01:28:47Z</time>
      </trkpt>
      <trkpt lat="44.2265" lon="5.81172">
        <ele>873</ele>
        <time>2018-05-17T01:29:47Z</time>
      </trkpt>
      <trkpt lat="44.2259" lon="5.81156">
        <ele>863</ele>
        <time>2018-05-17T01:30:47Z</time>
      </trkpt>
      <trkpt lat="44.22581" lon="5.81152">
        <ele>862</ele>
        <time>2018-05-17T01:31:47Z</time>
      </trkpt>
      <trkpt lat="44.22577" lon="5.81142">
        <ele>861</ele>
        <time>2018-05-17T01:32:47Z</time>
      </trkpt>
      <trkpt lat="44.2257" lon="5.81139">
        <ele>859</ele>
        <time>2018-05-17T01:33:47Z</time>
      </trkpt>
      <trkpt lat="44.22564" lon="5.81132">
        <ele>858</ele>
        <time>2018-05-17T01:34:47Z</time>
      </trkpt>
      <trkpt lat="44.22556" lon="5.81094">
        <ele>856</ele>
        <time>2018-05-17T01:35:47Z</time>
      </trkpt>
      <trkpt lat="44.22552" lon="5.81085">
        <ele>855</ele>
        <time>2018-05-17T01:36:47Z</time>
      </trkpt>
      <trkpt lat="44.22545" lon="5.81075">
        <ele>854</ele>
        <time>2018-05-17T01:37:47Z</time>
      </trkpt>
      <trkpt lat="44.22522" lon="5.8103">
        <ele>849</ele>
        <time>2018-05-17T01:38:47Z</time>
      </trkpt>
      <trkpt lat="44.22523" lon="5.80992">
        <ele>851</ele>
        <time>2018-05-17T01:39:47Z</time>
      </trkpt>
      <trkpt lat="44.22519" lon="5.80982">
        <ele>851</ele>
        <time>2018-05-17T01:40:47Z</time>
      </trkpt>
      <trkpt lat="44.22517" lon="5.80973">
        <ele>851</ele>
        <time>2018-05-17T01:41:47Z</time>
      </trkpt>
      <trkpt lat="44.2251" lon="5.80966">
        <ele>849</ele>
        <time>2018-05-17T01:42:47Z</time>
      </trkpt>
      <trkpt lat="44.22506" lon="5.80957">
        <ele>848</ele>
        <time>2018-05-17T01:43:47Z</time>
      </trkpt>
      <trkpt lat="44.22504" lon="5.80944">
        <ele>848</ele>
        <time>2018-05-17T01:44:47Z</time>
      </trkpt>
      <trkpt lat="44.22502" lon="5.80934">
        <ele>848</ele>
        <time>2018-05-17T01:45:47Z</time>
      </trkpt>
      <trkpt lat="44.22496" lon="5.80931">
        <ele>846</ele>
        <time>2018-05-17T01:46:47Z</time>
      </trkpt>
      <trkpt lat="44.22483" lon="5.80902">
        <ele>844</ele>
        <time>2018-05-17T01:47:47Z</time>
      </trkpt>
      <trkpt lat="44.22481" lon="5.80911">
        <ele>843</ele>
        <time>2018-05-17T01:48:47Z</time>
      </trkpt>
      <trkpt lat="44.22478" lon="5.80986">
        <ele>835</ele>
        <time>2018-05-17T01:49:47Z</time>
      </trkpt>
      <trkpt lat="44.22476" lon="5.80995">
        <ele>834</ele>
        <time>2018-05-17T01:50:47Z</time>
      </trkpt>
      <trkpt lat="44.22475" lon="5.81008">
        <ele>833</ele>
        <time>2018-05-17T01:51:47Z</time>
      </trkpt>
      <trkpt lat="44.22473" lon="5.81017">
        <ele>832</ele>
        <time>2018-05-17T01:52:47Z</time>
      </trkpt>
      <trkpt lat="44.22472" lon="5.8103">
        <ele>831</ele>
        <time>2018-05-17T01:53:47Z</time>
      </trkpt>
      <trkpt lat="44.22465" lon="5.81057">
        <ele>828</ele>
        <time>2018-05-17T01:54:47Z</time>
      </trkpt>
      <trkpt lat="44.2246" lon="5.81066">
        <ele>826</ele>
        <time>2018-05-17T01:55:47Z</time>
      </trkpt>
      <trkpt lat="44.22453" lon="5.81075">
        <ele>824</ele>
        <time>2018-05-17T01:56:47Z</time>
      </trkpt>
      <trkpt lat="44.2245" lon="5.81085">
        <ele>822</ele>
        <time>2018-05-17T01:57:47Z</time>
      </trkpt>
      <trkpt lat="44.22446" lon="5.81094">
        <ele>821</ele>
        <time>2018-05-17T01:58:47Z</time>
      </trkpt>
      <trkpt lat="44.22445" lon="5.81119">
        <ele>820</ele>
        <time>2018-05-17T01:59:47Z</time>
      </trkpt>
      <trkpt lat="44.22442" lon="5.81128">
        <ele>818</ele>
        <time>2018-05-17T02:00:47Z</time>
      </trkpt>
      <trkpt lat="44.2244" lon="5.8114">
        <ele>817</ele>
        <time>2018-05-17T02:01:47Z</time>
      </trkpt>
      <trkpt lat="44.22437" lon="5.81149">
        <ele>815</ele>
        <time>2018-05-17T02:02:47Z</time>
      </trkpt>
      <trkpt lat="44.22437" lon="5.81165">
        <ele>815</ele>
        <time>2018-05-17T02:03:47Z</time>
      </trkpt>
      <trkpt lat="44.22434" lon="5.81174">
        <ele>814</ele>
        <time>2018-05-17T02:04:47Z</time>
      </trkpt>
      <trkpt lat="44.22433" lon="5.81199">
        <ele>814</ele>
        <time>2018-05-17T02:05:47Z</time>
      </trkpt>
      <trkpt lat="44.22426" lon="5.81227">
        <ele>811</ele>
        <time>2018-05-17T02:06:47Z</time>
      </trkpt>
      <trkpt lat="44.22423" lon="5.81239">
        <ele>810</ele>
        <time>2018-05-17T02:07:47Z</time>
      </trkpt>
      <trkpt lat="44.22422" lon="5.8128">
        <ele>810</ele>
        <time>2018-05-17T02:08:47Z</time>
      </trkpt>
      <trkpt lat="44.22419" lon="5.81289">
        <ele>808</ele>
        <time>2018-05-17T02:09:47Z</time>
      </trkpt>
      <trkpt lat="44.22418" lon="5.81327">
        <ele>808</ele>
        <time>2018-05-17T02:10:47Z</time>
      </trkpt>
      <trkpt lat="44.2242" lon="5.81336">
        <ele>808</ele>
        <time>2018-05-17T02:11:47Z</time>
      </trkpt>
      <trkpt lat="44.22419" lon="5.81374">
        <ele>807</ele>
        <time>2018-05-17T02:12:47Z</time>
      </trkpt>
      <trkpt lat="44.22414" lon="5.81383">
        <ele>805</ele>
        <time>2018-05-17T02:13:47Z</time>
      </trkpt>
      <trkpt lat="44.22411" lon="5.81392">
        <ele>804</ele>
        <time>2018-05-17T02:14:47Z</time>
      </trkpt>
      <trkpt lat="44.22411" lon="5.81417">
        <ele>803</ele>
        <time>2018-05-17T02:15:47Z</time>
      </trkpt>
      <trkpt lat="44.22408" lon="5.81429">
        <ele>801</ele>
        <time>2018-05-17T02:16:47Z</time>
      </trkpt>
      <trkpt lat="44.22405" lon="5.81439">
        <ele>800</ele>
        <time>2018-05-17T02:17:47Z</time>
      </trkpt>
      <trkpt lat="44.22404" lon="5.81476">
        <ele>797</ele>
        <time>2018-05-17T02:18:47Z</time>
      </trkpt>
      <trkpt lat="44.22408" lon="5.81489">
        <ele>797</ele>
        <time>2018-05-17T02:19:47Z</time>
      </trkpt>
      <trkpt lat="44.22412" lon="5.81498">
        <ele>798</ele>
        <time>2018-05-17T02:20:47Z</time>
      </trkpt>
      <trkpt lat="44.2242" lon="5.81536">
        <ele>795</ele>
        <time>2018-05-17T02:21:47Z</time>
      </trkpt>
      <trkpt lat="44.22424" lon="5.81546">
        <ele>795</ele>
        <time>2018-05-17T02:22:47Z</time>
      </trkpt>
      <trkpt lat="44.22426" lon="5.81556">
        <ele>794</ele>
        <time>2018-05-17T02:23:47Z</time>
      </trkpt>
      <trkpt lat="44.22452" lon="5.81667">
        <ele>788</ele>
        <time>2018-05-17T02:24:47Z</time>
      </trkpt>
      <trkpt lat="44.22442" lon="5.81779">
        <ele>778</ele>
        <time>2018-05-17T02:25:47Z</time>
      </trkpt>
      <trkpt lat="44.22445" lon="5.81904">
        <ele>769</ele>
        <time>2018-05-17T02:26:47Z</time>
      </trkpt>
      <trkpt lat="44.22432" lon="5.8195">
        <ele>763</ele>
        <time>2018-05-17T02:27:47Z</time>
      </trkpt>
      <trkpt lat="44.22407" lon="5.81939">
        <ele>759</ele>
        <time>2018-05-17T02:28:47Z</time>
      </trkpt>
      <trkpt lat="44.22388" lon="5.81973">
        <ele>753</ele>
        <time>2018-05-17T02:29:47Z</time>
      </trkpt>
      <trkpt lat="44.22315" lon="5.8194">
        <ele>737</ele>
        <time>2018-05-17T02:30:47Z</time>
      </trkpt>
      <trkpt lat="44.22298" lon="5.82111">
        <ele>722</ele>
        <time>2018-05-17T02:31:47Z</time>
      </trkpt>
      <trkpt lat="44.22314" lon="5.82337">
        <ele>697</ele>
        <time>2018-05-17T02:32:47Z</time>
      </trkpt>
      <trkpt lat="44.22433" lon="5.82557">
        <ele>677</ele>
        <time>2018-05-17T02:33:47Z</time>
      </trkpt>
      <trkpt lat="44.22336" lon="5.82558">
        <ele>665</ele>
        <time>2018-05-17T02:34:47Z</time>
      </trkpt>
      <trkpt lat="44.22282" lon="5.82564">
        <ele>656</ele>
        <time>2018-05-17T02:35:47Z</time>
      </trkpt>
      <trkpt lat="44.22222" lon="5.82519">
        <ele>653</ele>
        <time>2018-05-17T02:36:47Z</time>
      </trkpt>
      <trkpt lat="44.22263" lon="5.82666">
        <ele>639</ele>
        <time>2018-05-17T02:37:47Z</time>
      </trkpt>
      <trkpt lat="44.2239" lon="5.8283">
        <ele>631</ele>
        <time>2018-05-17T02:38:47Z</time>
      </trkpt>
      <trkpt lat="44.22338" lon="5.82905">
        <ele>615</ele>
        <time>2018-05-17T02:39:47Z</time>
      </trkpt>
      <trkpt lat="44.22262" lon="5.83054">
        <ele>599</ele>
        <time>2018-05-17T02:40:47Z</time>
      </trkpt>
      <trkpt lat="44.22247" lon="5.83093">
        <ele>598</ele>
        <time>2018-05-17T02:41:47Z</time>
      </trkpt>
      <trkpt lat="44.22297" lon="5.83269">
        <ele>598</ele>
        <time>2018-05-17T02:42:47Z</time>
      </trkpt>
      <trkpt lat="44.22467" lon="5.83652">
        <ele>600</ele>
        <time>2018-05-17T02:43:47Z</time>
      </trkpt>
      <trkpt lat="44.22425" lon="5.83777">
        <ele>609</ele>
        <time>2018-05-17T02:44:47Z</time>
      </trkpt>
      <trkpt lat="44.22314" lon="5.84005">
        <ele>604</ele>
        <time>2018-05-17T02:45:47Z</time>
      </trkpt>
      <trkpt lat="44.22412" lon="5.84124">
        <ele>596</ele>
        <time>2018-05-17T02:46:47Z</time>
      </trkpt>
      <trkpt lat="44.2242" lon="5.84152">
        <ele>595</ele>
        <time>2018-05-17T02:47:47Z</time>
      </trkpt>
      <trkpt lat="44.22522" lon="5.8434">
        <ele>583</ele>
        <time>2018-05-17T02:48:47Z</time>
      </trkpt>
      <trkpt lat="44.22633" lon="5.84538">
        <ele>574</ele>
        <time>2018-05-17T02:49:47Z</time>
      </trkpt>
      <trkpt lat="44.2282" lon="5.84925">
        <ele>558</ele>
        <time>2018-05-17T02:50:47Z</time>
      </trkpt>
      <trkpt lat="44.22923" lon="5.85176">
        <ele>551</ele>
        <time>2018-05-17T02:51:47Z</time>
      </trkpt>
      <trkpt lat="44.23062" lon="5.85444">
        <ele>532</ele>
        <time>2018-05-17T02:52:47Z</time>
      </trkpt>
      <trkpt lat="44.23086" lon="5.85549">
        <ele>527</ele>
        <time>2018-05-17T02:53:47Z</time>
      </trkpt>
      <trkpt lat="44.23112" lon="5.85647">
        <ele>522</ele>
        <time>2018-05-17T02:54:47Z</time>
      </trkpt>
      <trkpt lat="44.2322" lon="5.85513">
        <ele>516</ele>
        <time>2018-05-17T02:55:47Z</time>
      </trkpt>
      <trkpt lat="44.2318" lon="5.85633">
        <ele>517</ele>
        <time>2018-05-17T02:56:47Z</time>
      </trkpt>
      <trkpt lat="44.23159" lon="5.85716">
        <ele>517</ele>
        <time>2018-05-17T02:57:47Z</time>
      </trkpt>
      <trkpt lat="44.23185" lon="5.85699">
        <ele>515</ele>
        <time>2018-05-17T02:58:47Z</time>
      </trkpt>
      <trkpt lat="44.23203" lon="5.85691">
        <ele>513</ele>
        <time>2018-05-17T02:59:47Z</time>
      </trkpt>
      <trkpt lat="44.23221" lon="5.85686">
        <ele>510</ele>
        <time>2018-05-17T03:00:47Z</time>
      </trkpt>
      <trkpt lat="44.2323" lon="5.85686">
        <ele>509</ele>
        <time>2018-05-17T03:01:47Z</time>
      </trkpt>
      <trkpt lat="44.23237" lon="5.85683">
        <ele>508</ele>
        <time>2018-05-17T03:02:47Z</time>
      </trkpt>
      <trkpt lat="44.23282" lon="5.85686">
        <ele>505</ele>
        <time>2018-05-17T03:03:47Z</time>
      </trkpt>
      <trkpt lat="44.23324" lon="5.85786">
        <ele>502</ele>
        <time>2018-05-17T03:04:47Z</time>
      </trkpt>
      <trkpt lat="44.23416" lon="5.86064">
        <ele>499</ele>
        <time>2018-05-17T03:05:47Z</time>
      </trkpt>
      <trkpt lat="44.23404" lon="5.86144">
        <ele>498</ele>
        <time>2018-05-17T03:06:47Z</time>
      </trkpt>
      <trkpt lat="44.23398" lon="5.86207">
        <ele>497</ele>
        <time>2018-05-17T03:07:47Z</time>
      </trkpt>
      <trkpt lat="44.23426" lon="5.86246">
        <ele>497</ele>
        <time>2018-05-17T03:08:47Z</time>
      </trkpt>
      <trkpt lat="44.2346" lon="5.86295">
        <ele>496</ele>
        <time>2018-05-17T03:09:47Z</time>
      </trkpt>
      <trkpt lat="44.23491" lon="5.86331">
        <ele>496</ele>
        <time>2018-05-17T03:10:47Z</time>
      </trkpt>
      <trkpt lat="44.23508" lon="5.86351">
        <ele>496</ele>
        <time>2018-05-17T03:11:47Z</time>
      </trkpt>
      <trkpt lat="44.23533" lon="5.8635">
        <ele>497</ele>
        <time>2018-05-17T03:12:47Z</time>
      </trkpt>
      <trkpt lat="44.23673" lon="5.86333">
        <ele>500</ele>
        <time>2018-05-17T03:13:47Z</time>
      </trkpt>
      <trkpt lat="44.24005" lon="5.86705">
        <ele>526</ele>
        <time>2018-05-17T03:14:47Z</time>
      </trkpt>
      <trkpt lat="44.24039" lon="5.8671">
        <ele>530</ele>
        <time>2018-05-17T03:15:47Z</time>
      </trkpt>
      <trkpt lat="44.24057" lon="5.86702">
        <ele>531</ele>
        <time>2018-05-17T03:16:47Z</time>
      </trkpt>
      <trkpt lat="44.24123" lon="5.86665">
        <ele>534</ele>
        <time>2018-05-17T03:17:47Z</time>
      </trkpt>
      <trkpt lat="44.24167" lon="5.86646">
        <ele>536</ele>
        <time>2018-05-17T03:18:47Z</time>
      </trkpt>
      <trkpt lat="44.24245" lon="5.86385">
        <ele>518</ele>
        <time>2018-05-17T03:19:47Z</time>
      </trkpt>
      <trkpt lat="44.24317" lon="5.86308">
        <ele>517</ele>
        <time>2018-05-17T03:20:47Z</time>
      </trkpt>
      <trkpt lat="44.24423" lon="5.86246">
        <ele>516</ele>
        <time>2018-05-17T03:21:47Z</time>
      </trkpt>
      <trkpt lat="44.24492" lon="5.862">
        <ele>517</ele>
        <time>2018-05-17T03:22:47Z</time>
      </trkpt>
      <trkpt lat="44.24585" lon="5.86109">
        <ele>516</ele>
        <time>2018-05-17T03:23:47Z</time>
      </trkpt>
      <trkpt lat="44.24642" lon="5.86068">
        <ele>517</ele>
        <time>2018-05-17T03:24:47Z</time>
      </trkpt>
      <trkpt lat="44.2467" lon="5.85986">
        <ele>514</ele>
        <time>2018-05-17T03:25:47Z</time>
      </trkpt>
      <trkpt lat="44.24789" lon="5.85833">
        <ele>520</ele>
        <time>2018-05-17T03:26:47Z</time>
      </trkpt>
      <trkpt lat="44.24804" lon="5.85787">
        <ele>518</ele>
        <time>2018-05-17T03:27:47Z</time>
      </trkpt>
      <trkpt lat="44.24874" lon="5.85726">
        <ele>523</ele>
        <time>2018-05-17T03:28:47Z</time>
      </trkpt>
      <trkpt lat="44.2489" lon="5.85721">
        <ele>525</ele>
        <time>2018-05-17T03:29:47Z</time>
      </trkpt>
      <trkpt lat="44.24904" lon="5.85703">
        <ele>526</ele>
        <time>2018-05-17T03:30:47Z</time>
      </trkpt>
      <trkpt lat="44.24899" lon="5.85649">
        <ele>521</ele>
        <time>2018-05-17T03:31:47Z</time>
      </trkpt>
      <trkpt lat="44.24889" lon="5.85614">
        <ele>518</ele>
        <time>2018-05-17T03:32:47Z</time>
      </trkpt>
      <trkpt lat="44.24904" lon="5.85562">
        <ele>518</ele>
        <time>2018-05-17T03:33:47Z</time>
      </trkpt>
      <trkpt lat="44.24936" lon="5.85542">
        <ele>520</ele>
        <time>2018-05-17T03:34:47Z</time>
      </trkpt>
      <trkpt lat="44.25012" lon="5.85475">
        <ele>523</ele>
        <time>2018-05-17T03:35:47Z</time>
      </trkpt>
      <trkpt lat="44.25143" lon="5.85326">
        <ele>523</ele>
        <time>2018-05-17T03:36:47Z</time>
      </trkpt>
      <trkpt lat="44.25231" lon="5.85244">
        <ele>525</ele>
        <time>2018-05-17T03:37:47Z</time>
      </trkpt>
      <trkpt lat="44.25322" lon="5.85159">
        <ele>527</ele>
        <time>2018-05-17T03:38:47Z</time>
      </trkpt>
      <trkpt lat="44.25331" lon="5.85138">
        <ele>526</ele>
        <time>2018-05-17T03:39:47Z</time>
      </trkpt>
      <trkpt lat="44.25348" lon="5.85117">
        <ele>526</ele>
        <time>2018-05-17T03:40:47Z</time>
      </trkpt>
      <trkpt lat="44.25382" lon="5.851">
        <ele>526</ele>
        <time>2018-05-17T03:41:47Z</time>
      </trkpt>
      <trkpt lat="44.2541" lon="5.85089">
        <ele>527</ele>
        <time>2018-05-17T03:42:47Z</time>
      </trkpt>
      <trkpt lat="44.25443" lon="5.85091">
        <ele>529</ele>
        <time>2018-05-17T03:43:47Z</time>
      </trkpt>
      <trkpt lat="44.2547" lon="5.8509">
        <ele>530</ele>
        <time>2018-05-17T03:44:47Z</time>
      </trkpt>
      <trkpt lat="44.25524" lon="5.85037">
        <ele>531</ele>
        <time>2018-05-17T03:45:47Z</time>
      </trkpt>
      <trkpt lat="44.25522" lon="5.85084">
        <ele>533</ele>
        <time>2018-05-17T03:46:47Z</time>
      </trkpt>
      <trkpt lat="44.25536" lon="5.85157">
        <ele>537</ele>
        <time>2018-05-17T03:47:47Z</time>
      </trkpt>
      <trkpt lat="44.25533" lon="5.85235">
        <ele>544</ele>
        <time>2018-05-17T03:48:47Z</time>
      </trkpt>
      <trkpt lat="44.25535" lon="5.85326">
        <ele>554</ele>
        <time>2018-05-17T03:49:47Z</time>
      </trkpt>
      <trkpt lat="44.25542" lon="5.85379">
        <ele>561</ele>
        <time>2018-05-17T03:50:47Z</time>
      </trkpt>
      <trkpt lat="44.25569" lon="5.85456">
        <ele>571</ele>
        <time>2018-05-17T03:51:47Z</time>
      </trkpt>
      <trkpt lat="44.25603" lon="5.85505">
        <ele>581</ele>
        <time>2018-05-17T03:52:47Z</time>
      </trkpt>
      <trkpt lat="44.25655" lon="5.85574">
        <ele>592</ele>
        <time>2018-05-17T03:53:47Z</time>
      </trkpt>
      <trkpt lat="44.25698" lon="5.85636">
        <ele>597</ele>
        <time>2018-05-17T03:54:47Z</time>
      </trkpt>
      <trkpt lat="44.25733" lon="5.85667">
        <ele>598</ele>
        <time>2018-05-17T03:55:47Z</time>
      </trkpt>
      <trkpt lat="44.25735" lon="5.85667">
        <ele>598</ele>
        <time>2018-05-17T03:56:47Z</time>
      </trkpt>
      <trkpt lat="44.2578" lon="5.85682">
        <ele>601</ele>
        <time>2018-05-17T03:57:47Z</time>
      </trkpt>
      <trkpt lat="44.2582" lon="5.85682">
        <ele>603</ele>
        <time>2018-05-17T03:58:47Z</time>
      </trkpt>
      <trkpt lat="44.2587" lon="5.85669">
        <ele>605</ele>
        <time>2018-05-17T03:59:47Z</time>
      </trkpt>
      <trkpt lat="44.25908" lon="5.85671">
        <ele>606</ele>
        <time>2018-05-17T04:00:47Z</time>
      </trkpt>
      <trkpt lat="44.25958" lon="5.85671">
        <ele>608</ele>
        <time>2018-05-17T04:01:47Z</time>
      </trkpt>
      <trkpt lat="44.25985" lon="5.85673">
        <ele>609</ele>
        <time>2018-05-17T04:02:47Z</time>
      </trkpt>
      <trkpt lat="44.26006" lon="5.85699">
        <ele>609</ele>
        <time>2018-05-17T04:03:47Z</time>
      </trkpt>
      <trkpt lat="44.26061" lon="5.85693">
        <ele>610</ele>
        <time>2018-05-17T04:04:47Z</time>
      </trkpt>
      <trkpt lat="44.26109" lon="5.85671">
        <ele>611</ele>
        <time>2018-05-17T04:05:47Z</time>
      </trkpt>
      <trkpt lat="44.26166" lon="5.85647">
        <ele>612</ele>
        <time>2018-05-17T04:06:47Z</time>
      </trkpt>
      <trkpt lat="44.26218" lon="5.85625">
        <ele>613</ele>
        <time>2018-05-17T04:07:47Z</time>
      </trkpt>
      <trkpt lat="44.26265" lon="5.85622">
        <ele>613</ele>
        <time>2018-05-17T04:08:47Z</time>
      </trkpt>
      <trkpt lat="44.26282" lon="5.85613">
        <ele>613</ele>
        <time>2018-05-17T04:09:47Z</time>
      </trkpt>
      <trkpt lat="44.26314" lon="5.85568">
        <ele>614</ele>
        <time>2018-05-17T04:10:47Z</time>
      </trkpt>
      <trkpt lat="44.26338" lon="5.85614">
        <ele>613</ele>
        <time>2018-05-17T04:11:47Z</time>
      </trkpt>
      <trkpt lat="44.26347" lon="5.85671">
        <ele>612</ele>
        <time>2018-05-17T04:12:47Z</time>
      </trkpt>
      <trkpt lat="44.26338" lon="5.85805">
        <ele>613</ele>
        <time>2018-05-17T04:13:47Z</time>
      </trkpt>
      <trkpt lat="44.26349" lon="5.85827">
        <ele>613</ele>
        <time>2018-05-17T04:14:47Z</time>
      </trkpt>
      <trkpt lat="44.26407" lon="5.85897">
        <ele>617</ele>
        <time>2018-05-17T04:15:47Z</time>
      </trkpt>
      <trkpt lat="44.26434" lon="5.85914">
        <ele>618</ele>
        <time>2018-05-17T04:16:47Z</time>
      </trkpt>
      <trkpt lat="44.26463" lon="5.85925">
        <ele>617</ele>
        <time>2018-05-17T04:17:47Z</time>
      </trkpt>
      <trkpt lat="44.26484" lon="5.85974">
        <ele>617</ele>
        <time>2018-05-17T04:18:47Z</time>
      </trkpt>
      <trkpt lat="44.26558" lon="5.85978">
        <ele>615</ele>
        <time>2018-05-17T04:19:47Z</time>
      </trkpt>
      <trkpt lat="44.26614" lon="5.85972">
        <ele>613</ele>
        <time>2018-05-17T04:20:47Z</time>
      </trkpt>
      <trkpt lat="44.26664" lon="5.8596">
        <ele>612</ele>
        <time>2018-05-17T04:21:47Z</time>
      </trkpt>
      <trkpt lat="44.26684" lon="5.85986">
        <ele>611</ele>
        <time>2018-05-17T04:22:47Z</time>
      </trkpt>
      <trkpt lat="44.26751" lon="5.85987">
        <ele>611</ele>
        <time>2018-05-17T04:23:47Z</time>
      </trkpt>
      <trkpt lat="44.2676" lon="5.85981">
        <ele>611</ele>
        <time>2018-05-17T04:24:47Z</time>
      </trkpt>
      <trkpt lat="44.2682" lon="5.86226">
        <ele>590</ele>
        <time>2018-05-17T04:25:47Z</time>
      </trkpt>
      <trkpt lat="44.26884" lon="5.86478">
        <ele>597</ele>
        <time>2018-05-17T04:26:47Z</time>
      </trkpt>
      <trkpt lat="44.269" lon="5.86526">
        <ele>602</ele>
        <time>2018-05-17T04:27:47Z</time>
      </trkpt>
      <trkpt lat="44.26917" lon="5.86552">
        <ele>604</ele>
        <time>2018-05-17T04:28:47Z</time>
      </trkpt>
      <trkpt lat="44.26937" lon="5.86572">
        <ele>605</ele>
        <time>2018-05-17T04:29:47Z</time>
      </trkpt>
      <trkpt lat="44.26954" lon="5.8661">
        <ele>607</ele>
        <time>2018-05-17T04:30:47Z</time>
      </trkpt>
      <trkpt lat="44.26964" lon="5.86642">
        <ele>609</ele>
        <time>2018-05-17T04:31:47Z</time>
      </trkpt>
      <trkpt lat="44.26972" lon="5.86737">
        <ele>613</ele>
        <time>2018-05-17T04:32:47Z</time>
      </trkpt>
      <trkpt lat="44.26977" lon="5.8679">
        <ele>613</ele>
        <time>2018-05-17T04:33:47Z</time>
      </trkpt>
      <trkpt lat="44.26995" lon="5.86854">
        <ele>614</ele>
        <time>2018-05-17T04:34:47Z</time>
      </trkpt>
      <trkpt lat="44.26998" lon="5.86851">
        <ele>615</ele>
        <time>2018-05-17T04:35:47Z</time>
      </trkpt>
      <trkpt lat="44.27007" lon="5.86899">
        <ele>615</ele>
        <time>2018-05-17T04:36:47Z</time>
      </trkpt>
      <trkpt lat="44.27033" lon="5.86929">
        <ele>618</ele>
        <time>2018-05-17T04:37:47Z</time>
      </trkpt>
      <trkpt lat="44.271" lon="5.87014">
        <ele>621</ele>
        <time>2018-05-17T04:38:47Z</time>
      </trkpt>
      <trkpt lat="44.27218" lon="5.87141">
        <ele>628</ele>
        <time>2018-05-17T04:39:47Z</time>
      </trkpt>
      <trkpt lat="44.27316" lon="5.87247">
        <ele>632</ele>
        <time>2018-05-17T04:40:47Z</time>
      </trkpt>
      <trkpt lat="44.27359" lon="5.873">
        <ele>635</ele>
        <time>2018-05-17T04:41:47Z</time>
      </trkpt>
      <trkpt lat="44.27394" lon="5.87339">
        <ele>637</ele>
        <time>2018-05-17T04:42:47Z</time>
      </trkpt>
      <trkpt lat="44.27416" lon="5.87347">
        <ele>639</ele>
        <time>2018-05-17T04:43:47Z</time>
      </trkpt>
      <trkpt lat="44.27474" lon="5.87376">
        <ele>641</ele>
        <time>2018-05-17T04:44:47Z</time>
      </trkpt>
      <trkpt lat="44.27507" lon="5.87384">
        <ele>642</ele>
        <time>2018-05-17T04:45:47Z</time>
      </trkpt>
      <trkpt lat="44.27561" lon="5.87388">
        <ele>644</ele>
        <time>2018-05-17T04:46:47Z</time>
      </trkpt>
      <trkpt lat="44.27605" lon="5.87406">
        <ele>645</ele>
        <time>2018-05-17T04:47:47Z</time>
      </trkpt>
      <trkpt lat="44.27636" lon="5.87427">
        <ele>646</ele>
        <time>2018-05-17T04:48:47Z</time>
      </trkpt>
      <trkpt lat="44.27679" lon="5.87436">
        <ele>647</ele>
        <time>2018-05-17T04:49:47Z</time>
      </trkpt>
      <trkpt lat="44.27726" lon="5.87445">
        <ele>647</ele>
        <time>2018-05-17T04:50:47Z</time>
      </trkpt>
      <trkpt lat="44.2779" lon="5.87468">
        <ele>647</ele>
        <time>2018-05-17T04:51:47Z</time>
      </trkpt>
      <trkpt lat="44.27793" lon="5.87458">
        <ele>648</ele>
        <time>2018-05-17T04:52:47Z</time>
      </trkpt>
      <trkpt lat="44.27808" lon="5.87484">
        <ele>647</ele>
        <time>2018-05-17T04:53:47Z</time>
      </trkpt>
      <trkpt lat="44.27846" lon="5.8749">
        <ele>648</ele>
        <time>2018-05-17T04:54:47Z</time>
      </trkpt>
      <trkpt lat="44.27875" lon="5.87498">
        <ele>649</ele>
        <time>2018-05-17T04:55:47Z</time>
      </trkpt>
      <trkpt lat="44.27924" lon="5.87514">
        <ele>649</ele>
        <time>2018-05-17T04:56:47Z</time>
      </trkpt>
      <trkpt lat="44.27993" lon="5.87534">
        <ele>652</ele>
        <time>2018-05-17T04:57:47Z</time>
      </trkpt>
      <trkpt lat="44.28062" lon="5.8756">
        <ele>655</ele>
        <time>2018-05-17T04:58:47Z</time>
      </trkpt>
      <trkpt lat="44.28117" lon="5.87579">
        <ele>656</ele>
        <time>2018-05-17T04:59:47Z</time>
      </trkpt>
      <trkpt lat="44.28194" lon="5.87584">
        <ele>658</ele>
        <time>2018-05-17T05:00:47Z</time>
      </trkpt>
      <trkpt lat="44.28272" lon="5.87595">
        <ele>660</ele>
        <time>2018-05-17T05:01:47Z</time>
      </trkpt>
      <trkpt lat="44.2837" lon="5.87639">
        <ele>663</ele>
        <time>2018-05-17T05:02:47Z</time>
      </trkpt>
      <trkpt lat="44.28437" lon="5.87721">
        <ele>665</ele>
        <time>2018-05-17T05:03:47Z</time>
      </trkpt>
      <trkpt lat="44.28497" lon="5.8775">
        <ele>667</ele>
        <time>2018-05-17T05:04:47Z</time>
      </trkpt>
      <trkpt lat="44.28572" lon="5.87792">
        <ele>669</ele>
        <time>2018-05-17T05:05:47Z</time>
      </trkpt>
      <trkpt lat="44.28603" lon="5.87794">
        <ele>669</ele>
        <time>2018-05-17T05:06:47Z</time>
      </trkpt>
      <trkpt lat="44.28631" lon="5.87771">
        <ele>669</ele>
        <time>2018-05-17T05:07:47Z</time>
      </trkpt>
      <trkpt lat="44.28667" lon="5.87767">
        <ele>669</ele>
        <time>2018-05-17T05:08:47Z</time>
      </trkpt>
      <trkpt lat="44.28688" lon="5.87753">
        <ele>668</ele>
        <time>2018-05-17T05:09:47Z</time>
      </trkpt>
      <trkpt lat="44.28732" lon="5.87705">
        <ele>667</ele>
        <time>2018-05-17T05:10:47Z</time>
      </trkpt>
      <trkpt lat="44.28741" lon="5.87649">
        <ele>668</ele>
        <time>2018-05-17T05:11:47Z</time>
      </trkpt>
      <trkpt lat="44.28753" lon="5.87603">
        <ele>670</ele>
        <time>2018-05-17T05:12:47Z</time>
      </trkpt>
      <trkpt lat="44.28841" lon="5.87606">
        <ele>671</ele>
        <time>2018-05-17T05:13:47Z</time>
      </trkpt>
      <trkpt lat="44.28923" lon="5.87636">
        <ele>674</ele>
        <time>2018-05-17T05:14:47Z</time>
      </trkpt>
      <trkpt lat="44.28998" lon="5.87684">
        <ele>676</ele>
        <time>2018-05-17T05:15:47Z</time>
      </trkpt>
      <trkpt lat="44.2902" lon="5.87705">
        <ele>676</ele>
        <time>2018-05-17T05:16:47Z</time>
      </trkpt>
    </trkseg>
  </trk>
</gpx>